PWSweather.com
Personal Weather Stations
Station Observations
KILASHKU1
Ashkum, IL

Ashkum, IL

Lat: 40.8779862, Lon: -87.846552

Elevation: 626

Station Type: Davis Vantage Pro 2

Latest ConditionsUpdated 10:44:00 PM CDT Sunday, May 19, 2019
Currently Today's Max Today's Min Today's Average
Temperature 59.1°F15.1°C 78.7°F25.9°C 59.1°F15.1°C 69.6°F20.9°C
Dew Point 54.6°F12.6°C 67.0°F19.4°C 54.6°F12.6°C 62.4°F16.9°C
Winds 11.0 mph W17.7 kmh W 23.0 mph -37.0 kmh - - 12.9 mph 20.8 kmh
Wind Gusts 16.0 mph25.7 kmh 33.0 mph53.1 kmh - -
Humidity 85% 91% 50% 79%
Pressure 29.82 in1009.8 mb 29.82 in1009.8 mb 29.59 in1002.0 mb -
Precipitation - 0.15 in3.8 mm - -
Hour Temp Dew Point Humidity Winds Wind Gusts Pressure Precip Precip Rate Daily Precip Total
10:44 PM 59.1°F15.1°C 54.6°F12.6°C 85% 11.0 mph W17.7 kmh W 16.0 mph25.7 kmh 29.82 in1009.8 mb 0.00 in0.0 mm 0.00 in0.0 mm 0.15 in3.8 mm
10:42 PM 59.2°F15.1°C 54.7°F12.6°C 85% 11.0 mph W17.7 kmh W 16.0 mph25.7 kmh 29.81 in1009.5 mb 0.00 in0.0 mm 0.00 in0.0 mm 0.15 in3.8 mm
10:40 PM 59.3°F15.2°C 54.8°F12.7°C 85% 10.0 mph WSW16.1 kmh WSW 16.0 mph25.7 kmh 29.81 in1009.5 mb 0.00 in0.0 mm 0.00 in0.0 mm 0.15 in3.8 mm
10:38 PM 59.3°F15.2°C 54.8°F12.7°C 85% 10.0 mph WSW16.1 kmh WSW 16.0 mph25.7 kmh 29.81 in1009.5 mb 0.00 in0.0 mm 0.00 in0.0 mm 0.15 in3.8 mm
10:36 PM 59.4°F15.2°C 54.9°F12.7°C 85% 10.0 mph WSW16.1 kmh WSW 16.0 mph25.7 kmh 29.81 in1009.5 mb 0.00 in0.0 mm 0.00 in0.0 mm 0.15 in3.8 mm
10:34 PM 59.5°F15.3°C 55.0°F12.8°C 85% 10.0 mph WSW16.1 kmh WSW 16.0 mph25.7 kmh 29.81 in1009.5 mb 0.00 in0.0 mm 0.00 in0.0 mm 0.15 in3.8 mm
10:32 PM 59.7°F15.4°C 54.9°F12.7°C 84% 10.0 mph WSW16.1 kmh WSW 16.0 mph25.7 kmh 29.81 in1009.5 mb 0.00 in0.0 mm 0.00 in0.0 mm 0.15 in3.8 mm
10:30 PM 59.8°F15.4°C 55.0°F12.8°C 84% 11.0 mph WSW17.7 kmh WSW 16.0 mph25.7 kmh 29.81 in1009.5 mb 0.00 in0.0 mm 0.00 in0.0 mm 0.15 in3.8 mm
10:28 PM 59.9°F15.5°C 55.1°F12.8°C 84% 10.0 mph WSW16.1 kmh WSW 16.0 mph25.7 kmh 29.81 in1009.5 mb 0.00 in0.0 mm 0.00 in0.0 mm 0.15 in3.8 mm
10:26 PM 60.0°F15.6°C 55.2°F12.9°C 84% 11.0 mph WSW17.7 kmh WSW 18.0 mph29.0 kmh 29.81 in1009.5 mb 0.00 in0.0 mm 0.00 in0.0 mm 0.15 in3.8 mm
10:24 PM 60.2°F15.7°C 55.3°F12.9°C 84% 11.0 mph W17.7 kmh W 18.0 mph29.0 kmh 29.81 in1009.5 mb 0.00 in0.0 mm 0.00 in0.0 mm 0.15 in3.8 mm
10:22 PM 60.4°F15.8°C 55.5°F13.1°C 84% 12.0 mph W19.3 kmh W 18.0 mph29.0 kmh 29.81 in1009.5 mb 0.00 in0.0 mm 0.00 in0.0 mm 0.15 in3.8 mm
10:20 PM 60.5°F15.8°C 55.6°F13.1°C 84% 12.0 mph W19.3 kmh W 18.0 mph29.0 kmh 29.80 in1009.1 mb 0.00 in0.0 mm 0.00 in0.0 mm 0.15 in3.8 mm
10:18 PM 60.6°F15.9°C 55.4°F13.0°C 83% 12.0 mph W19.3 kmh W 18.0 mph29.0 kmh 29.80 in1009.1 mb 0.00 in0.0 mm 0.00 in0.0 mm 0.15 in3.8 mm
10:16 PM 60.7°F15.9°C 55.8°F13.2°C 84% 11.0 mph W17.7 kmh W 16.0 mph25.7 kmh 29.80 in1009.1 mb 0.00 in0.0 mm 0.00 in0.0 mm 0.15 in3.8 mm
10:14 PM 60.7°F15.9°C 55.8°F13.2°C 84% 10.0 mph W16.1 kmh W 16.0 mph25.7 kmh 29.80 in1009.1 mb 0.00 in0.0 mm 0.00 in0.0 mm 0.15 in3.8 mm
10:12 PM 60.8°F16.0°C 56.3°F13.5°C 85% 10.0 mph W16.1 kmh W 16.0 mph25.7 kmh 29.80 in1009.1 mb 0.00 in0.0 mm 0.00 in0.0 mm 0.15 in3.8 mm
10:10 PM 60.9°F16.1°C 56.4°F13.6°C 85% 10.0 mph W16.1 kmh W 16.0 mph25.7 kmh 29.80 in1009.1 mb 0.00 in0.0 mm 0.00 in0.0 mm 0.15 in3.8 mm
10:08 PM 61.0°F16.1°C 56.5°F13.6°C 85% 9.0 mph W14.5 kmh W 15.0 mph24.1 kmh 29.80 in1009.1 mb 0.00 in0.0 mm 0.00 in0.0 mm 0.15 in3.8 mm
10:06 PM 61.1°F16.2°C 56.6°F13.7°C 85% 9.0 mph W14.5 kmh W 15.0 mph24.1 kmh 29.80 in1009.1 mb 0.00 in0.0 mm 0.00 in0.0 mm 0.15 in3.8 mm
10:04 PM 61.1°F16.2°C 56.6°F13.7°C 85% 9.0 mph WSW14.5 kmh WSW 15.0 mph24.1 kmh 29.80 in1009.1 mb 0.00 in0.0 mm 0.00 in0.0 mm 0.15 in3.8 mm
10:02 PM 61.0°F16.1°C 56.5°F13.6°C 85% 9.0 mph WSW14.5 kmh WSW 12.0 mph19.3 kmh 29.80 in1009.1 mb 0.00 in0.0 mm 0.00 in0.0 mm 0.15 in3.8 mm
10:00 PM 61.0°F16.1°C 56.1°F13.4°C 84% 9.0 mph WSW14.5 kmh WSW 12.0 mph19.3 kmh 29.80 in1009.1 mb 0.00 in0.0 mm 0.00 in0.0 mm 0.15 in3.8 mm
09:58 PM 61.0°F16.1°C 56.1°F13.4°C 84% 9.0 mph WSW14.5 kmh WSW 13.0 mph20.9 kmh 29.80 in1009.1 mb 0.00 in0.0 mm 0.00 in0.0 mm 0.15 in3.8 mm
09:56 PM 61.1°F16.2°C 55.9°F13.3°C 83% 9.0 mph WSW14.5 kmh WSW 13.0 mph20.9 kmh 29.79 in1008.8 mb 0.00 in0.0 mm 0.00 in0.0 mm 0.15 in3.8 mm
09:54 PM 61.2°F16.2°C 56.0°F13.3°C 83% 9.0 mph WSW14.5 kmh WSW 13.0 mph20.9 kmh 29.79 in1008.8 mb 0.00 in0.0 mm 0.00 in0.0 mm 0.15 in3.8 mm
09:52 PM 61.3°F16.3°C 55.8°F13.2°C 82% 9.0 mph WSW14.5 kmh WSW 13.0 mph20.9 kmh 29.79 in1008.8 mb 0.00 in0.0 mm 0.00 in0.0 mm 0.15 in3.8 mm
09:50 PM 61.3°F16.3°C 55.8°F13.2°C 82% 9.0 mph WSW14.5 kmh WSW 13.0 mph20.9 kmh 29.79 in1008.8 mb 0.00 in0.0 mm 0.00 in0.0 mm 0.15 in3.8 mm
09:48 PM 61.4°F16.3°C 55.5°F13.1°C 81% 10.0 mph WSW16.1 kmh WSW 16.0 mph25.7 kmh 29.79 in1008.8 mb 0.00 in0.0 mm 0.00 in0.0 mm 0.15 in3.8 mm
09:46 PM 61.5°F16.4°C 55.6°F13.1°C 81% 10.0 mph WSW16.1 kmh WSW 16.0 mph25.7 kmh 29.79 in1008.8 mb 0.00 in0.0 mm 0.00 in0.0 mm 0.15 in3.8 mm
09:44 PM 61.6°F16.4°C 55.4°F13.0°C 80% 11.0 mph WSW17.7 kmh WSW 16.0 mph25.7 kmh 29.78 in1008.5 mb 0.00 in0.0 mm 0.00 in0.0 mm 0.15 in3.8 mm
09:42 PM 61.8°F16.6°C 55.6°F13.1°C 80% 11.0 mph WSW17.7 kmh WSW 16.0 mph25.7 kmh 29.78 in1008.5 mb 0.00 in0.0 mm 0.00 in0.0 mm 0.15 in3.8 mm
09:40 PM 61.9°F16.6°C 55.3°F12.9°C 79% 12.0 mph WSW19.3 kmh WSW 18.0 mph29.0 kmh 29.78 in1008.5 mb 0.00 in0.0 mm 0.00 in0.0 mm 0.15 in3.8 mm
09:38 PM 62.0°F16.7°C 55.4°F13.0°C 79% 13.0 mph WSW20.9 kmh WSW 19.0 mph30.6 kmh 29.78 in1008.5 mb 0.00 in0.0 mm 0.00 in0.0 mm 0.15 in3.8 mm
09:36 PM 62.1°F16.7°C 55.2°F12.9°C 78% 13.0 mph WSW20.9 kmh WSW 19.0 mph30.6 kmh 29.77 in1008.1 mb 0.00 in0.0 mm 0.00 in0.0 mm 0.15 in3.8 mm
09:34 PM 62.2°F16.8°C 55.3°F12.9°C 78% 13.0 mph WSW20.9 kmh WSW 19.0 mph30.6 kmh 29.77 in1008.1 mb 0.00 in0.0 mm 0.00 in0.0 mm 0.15 in3.8 mm
09:32 PM 62.3°F16.8°C 55.4°F13.0°C 78% 13.0 mph WSW20.9 kmh WSW 19.0 mph30.6 kmh 29.78 in1008.5 mb 0.00 in0.0 mm 0.00 in0.0 mm 0.15 in3.8 mm
09:30 PM 62.3°F16.8°C 55.4°F13.0°C 78% 14.0 mph WSW22.5 kmh WSW 19.0 mph30.6 kmh 29.77 in1008.1 mb 0.00 in0.0 mm 0.00 in0.0 mm 0.15 in3.8 mm
09:28 PM 62.4°F16.9°C 55.4°F13.0°C 78% 13.0 mph WSW20.9 kmh WSW 19.0 mph30.6 kmh 29.77 in1008.1 mb 0.00 in0.0 mm 0.00 in0.0 mm 0.15 in3.8 mm
09:26 PM 62.5°F16.9°C 55.5°F13.1°C 78% 14.0 mph WSW22.5 kmh WSW 19.0 mph30.6 kmh 29.77 in1008.1 mb 0.00 in0.0 mm 0.00 in0.0 mm 0.15 in3.8 mm
09:24 PM 62.6°F17.0°C 56.0°F13.3°C 79% 13.0 mph WSW20.9 kmh WSW 17.0 mph27.4 kmh 29.77 in1008.1 mb 0.00 in0.0 mm 0.00 in0.0 mm 0.15 in3.8 mm
09:22 PM 62.7°F17.1°C 56.1°F13.4°C 79% 14.0 mph WSW22.5 kmh WSW 19.0 mph30.6 kmh 29.77 in1008.1 mb 0.00 in0.0 mm 0.00 in0.0 mm 0.15 in3.8 mm
09:20 PM 62.8°F17.1°C 56.5°F13.6°C 80% 13.0 mph WSW20.9 kmh WSW 19.0 mph30.6 kmh 29.77 in1008.1 mb 0.00 in0.0 mm 0.00 in0.0 mm 0.15 in3.8 mm
09:18 PM 62.9°F17.2°C 56.6°F13.7°C 80% 13.0 mph W20.9 kmh W 19.0 mph30.6 kmh 29.77 in1008.1 mb 0.00 in0.0 mm 0.00 in0.0 mm 0.15 in3.8 mm
09:16 PM 63.1°F17.3°C 57.2°F14.0°C 81% 14.0 mph W22.5 kmh W 19.0 mph30.6 kmh 29.77 in1008.1 mb 0.00 in0.0 mm 0.00 in0.0 mm 0.15 in3.8 mm
09:14 PM 63.2°F17.3°C 57.3°F14.1°C 81% 14.0 mph W22.5 kmh W 19.0 mph30.6 kmh 29.77 in1008.1 mb 0.00 in0.0 mm 0.00 in0.0 mm 0.15 in3.8 mm
09:12 PM 63.2°F17.3°C 57.3°F14.1°C 81% 13.0 mph W20.9 kmh W 19.0 mph30.6 kmh 29.77 in1008.1 mb 0.00 in0.0 mm 0.00 in0.0 mm 0.15 in3.8 mm
09:10 PM 63.4°F17.4°C 57.5°F14.2°C 81% 14.0 mph W22.5 kmh W 20.0 mph32.2 kmh 29.77 in1008.1 mb 0.00 in0.0 mm 0.00 in0.0 mm 0.15 in3.8 mm
09:08 PM 63.5°F17.5°C 57.6°F14.2°C 81% 14.0 mph W22.5 kmh W 20.0 mph32.2 kmh 29.76 in1007.8 mb 0.00 in0.0 mm 0.00 in0.0 mm 0.15 in3.8 mm
09:06 PM 63.6°F17.6°C 57.3°F14.1°C 80% 14.0 mph W22.5 kmh W 21.0 mph33.8 kmh 29.76 in1007.8 mb 0.00 in0.0 mm 0.00 in0.0 mm 0.15 in3.8 mm
09:04 PM 63.7°F17.6°C 57.8°F14.3°C 81% 14.0 mph W22.5 kmh W 21.0 mph33.8 kmh 29.76 in1007.8 mb 0.00 in0.0 mm 0.00 in0.0 mm 0.15 in3.8 mm
09:02 PM 63.8°F17.7°C 57.9°F14.4°C 81% 15.0 mph W24.1 kmh W 21.0 mph33.8 kmh 29.76 in1007.8 mb 0.00 in0.0 mm 0.00 in0.0 mm 0.15 in3.8 mm
09:00 PM 63.9°F17.7°C 58.0°F14.4°C 81% 15.0 mph W24.1 kmh W 21.0 mph33.8 kmh 29.76 in1007.8 mb 0.00 in0.0 mm 0.00 in0.0 mm 0.15 in3.8 mm
08:58 PM 64.1°F17.8°C 58.1°F14.5°C 81% 16.0 mph W25.7 kmh W 21.0 mph33.8 kmh 29.76 in1007.8 mb 0.00 in0.0 mm 0.00 in0.0 mm 0.15 in3.8 mm
08:56 PM 64.2°F17.9°C 58.2°F14.6°C 81% 16.0 mph W25.7 kmh W 22.0 mph35.4 kmh 29.76 in1007.8 mb 0.00 in0.0 mm 0.00 in0.0 mm 0.15 in3.8 mm
08:54 PM 64.4°F18.0°C 58.1°F14.5°C 80% 17.0 mph W27.4 kmh W 27.0 mph43.5 kmh 29.76 in1007.8 mb 0.00 in0.0 mm 0.00 in0.0 mm 0.15 in3.8 mm
08:52 PM 64.6°F18.1°C 58.3°F14.6°C 80% 18.0 mph W29.0 kmh W 28.0 mph45.1 kmh 29.76 in1007.8 mb 0.00 in0.0 mm 0.00 in0.0 mm 0.15 in3.8 mm
08:50 PM 64.9°F18.3°C 58.6°F14.8°C 80% 18.0 mph W29.0 kmh W 28.0 mph45.1 kmh 29.76 in1007.8 mb 0.00 in0.0 mm 0.00 in0.0 mm 0.15 in3.8 mm
08:48 PM 65.2°F18.4°C 58.9°F14.9°C 80% 17.0 mph W27.4 kmh W 28.0 mph45.1 kmh 29.76 in1007.8 mb 0.00 in0.0 mm 0.00 in0.0 mm 0.15 in3.8 mm
08:46 PM 65.4°F18.6°C 59.4°F15.2°C 81% 16.0 mph WSW25.7 kmh WSW 28.0 mph45.1 kmh 29.76 in1007.8 mb 0.00 in0.0 mm 0.00 in0.0 mm 0.15 in3.8 mm
08:44 PM 65.6°F18.7°C 59.6°F15.3°C 81% 14.0 mph WSW22.5 kmh WSW 28.0 mph45.1 kmh 29.75 in1007.5 mb 0.00 in0.0 mm 0.00 in0.0 mm 0.15 in3.8 mm
08:42 PM 65.7°F18.7°C 60.4°F15.8°C 83% 12.0 mph W19.3 kmh W 27.0 mph43.5 kmh 29.75 in1007.5 mb 0.00 in0.0 mm 0.00 in0.0 mm 0.15 in3.8 mm
08:40 PM 65.7°F18.7°C 60.4°F15.8°C 83% 10.0 mph W16.1 kmh W 15.0 mph24.1 kmh 29.75 in1007.5 mb 0.00 in0.0 mm 0.00 in0.0 mm 0.15 in3.8 mm
08:38 PM 65.8°F18.8°C 60.5°F15.8°C 83% 10.0 mph W16.1 kmh W 15.0 mph24.1 kmh 29.74 in1007.1 mb 0.00 in0.0 mm 0.00 in0.0 mm 0.15 in3.8 mm
08:36 PM 65.8°F18.8°C 60.5°F15.8°C 83% 10.0 mph W16.1 kmh W 15.0 mph24.1 kmh 29.74 in1007.1 mb 0.00 in0.0 mm 0.00 in0.0 mm 0.15 in3.8 mm
08:34 PM 65.8°F18.8°C 60.5°F15.8°C 83% 10.0 mph W16.1 kmh W 15.0 mph24.1 kmh 29.74 in1007.1 mb 0.00 in0.0 mm 0.00 in0.0 mm 0.15 in3.8 mm
08:32 PM 65.9°F18.8°C 60.2°F15.7°C 82% 9.0 mph W14.5 kmh W 13.0 mph20.9 kmh 29.74 in1007.1 mb 0.00 in0.0 mm 0.00 in0.0 mm 0.15 in3.8 mm
08:30 PM 65.8°F18.8°C 60.2°F15.7°C 82% 9.0 mph W14.5 kmh W 13.0 mph20.9 kmh 29.74 in1007.1 mb 0.00 in0.0 mm 0.00 in0.0 mm 0.15 in3.8 mm
08:28 PM 65.9°F18.8°C 60.2°F15.7°C 82% 8.0 mph WSW12.9 kmh WSW 12.0 mph19.3 kmh 29.74 in1007.1 mb 0.00 in0.0 mm 0.00 in0.0 mm 0.15 in3.8 mm
08:26 PM 65.9°F18.8°C 60.2°F15.7°C 82% 9.0 mph WSW14.5 kmh WSW 12.0 mph19.3 kmh 29.74 in1007.1 mb 0.00 in0.0 mm 0.00 in0.0 mm 0.15 in3.8 mm
08:24 PM 66.1°F18.9°C 60.1°F15.6°C 81% 9.0 mph WSW14.5 kmh WSW 14.0 mph22.5 kmh 29.73 in1006.8 mb 0.00 in0.0 mm 0.00 in0.0 mm 0.15 in3.8 mm
08:22 PM 66.1°F18.9°C 60.1°F15.6°C 81% 9.0 mph WSW14.5 kmh WSW 14.0 mph22.5 kmh 29.73 in1006.8 mb 0.00 in0.0 mm 0.00 in0.0 mm 0.15 in3.8 mm
08:20 PM 66.3°F19.1°C 60.3°F15.7°C 81% 9.0 mph WSW14.5 kmh WSW 14.0 mph22.5 kmh 29.73 in1006.8 mb 0.00 in0.0 mm 0.00 in0.0 mm 0.15 in3.8 mm
08:18 PM 66.3°F19.1°C 60.3°F15.7°C 81% 9.0 mph WSW14.5 kmh WSW 14.0 mph22.5 kmh 29.73 in1006.8 mb 0.00 in0.0 mm 0.00 in0.0 mm 0.15 in3.8 mm
08:16 PM 66.4°F19.1°C 60.0°F15.6°C 80% 9.0 mph W14.5 kmh W 14.0 mph22.5 kmh 29.73 in1006.8 mb 0.00 in0.0 mm 0.00 in0.0 mm 0.15 in3.8 mm
08:14 PM 66.5°F19.2°C 60.1°F15.6°C 80% 10.0 mph W16.1 kmh W 16.0 mph25.7 kmh 29.73 in1006.8 mb 0.00 in0.0 mm 0.00 in0.0 mm 0.15 in3.8 mm
08:12 PM 66.5°F19.2°C 60.1°F15.6°C 80% 10.0 mph W16.1 kmh W 16.0 mph25.7 kmh 29.73 in1006.8 mb 0.00 in0.0 mm 0.00 in0.0 mm 0.15 in3.8 mm
08:10 PM 66.6°F19.2°C 60.2°F15.7°C 80% 10.0 mph WSW16.1 kmh WSW 16.0 mph25.7 kmh 29.73 in1006.8 mb 0.00 in0.0 mm 0.00 in0.0 mm 0.15 in3.8 mm
08:08 PM 66.6°F19.2°C 60.2°F15.7°C 80% 10.0 mph WSW16.1 kmh WSW 16.0 mph25.7 kmh 29.73 in1006.8 mb 0.00 in0.0 mm 0.00 in0.0 mm 0.15 in3.8 mm
08:06 PM 66.6°F19.2°C 59.9°F15.5°C 79% 11.0 mph WSW17.7 kmh WSW 16.0 mph25.7 kmh 29.73 in1006.8 mb 0.00 in0.0 mm 0.00 in0.0 mm 0.15 in3.8 mm
08:04 PM 66.6°F19.2°C 60.2°F15.7°C 80% 11.0 mph WSW17.7 kmh WSW 15.0 mph24.1 kmh 29.73 in1006.8 mb 0.00 in0.0 mm 0.00 in0.0 mm 0.15 in3.8 mm
08:02 PM 66.8°F19.3°C 60.4°F15.8°C 80% 10.0 mph WSW16.1 kmh WSW 15.0 mph24.1 kmh 29.73 in1006.8 mb 0.00 in0.0 mm 0.00 in0.0 mm 0.15 in3.8 mm
08:00 PM 66.9°F19.4°C 60.2°F15.7°C 79% 10.0 mph WSW16.1 kmh WSW 15.0 mph24.1 kmh 29.73 in1006.8 mb 0.00 in0.0 mm 0.00 in0.0 mm 0.15 in3.8 mm
07:58 PM 67.0°F19.4°C 60.3°F15.7°C 79% 10.0 mph WSW16.1 kmh WSW 15.0 mph24.1 kmh 29.72 in1006.4 mb 0.00 in0.0 mm 0.00 in0.0 mm 0.15 in3.8 mm
07:56 PM 67.1°F19.5°C 60.4°F15.8°C 79% 10.0 mph WSW16.1 kmh WSW 15.0 mph24.1 kmh 29.72 in1006.4 mb 0.00 in0.0 mm 0.00 in0.0 mm 0.15 in3.8 mm
07:54 PM 67.3°F19.6°C 60.9°F16.1°C 80% 10.0 mph WSW16.1 kmh WSW 15.0 mph24.1 kmh 29.72 in1006.4 mb 0.00 in0.0 mm 0.00 in0.0 mm 0.15 in3.8 mm
07:52 PM 67.5°F19.7°C 60.8°F16.0°C 79% 10.0 mph WSW16.1 kmh WSW 15.0 mph24.1 kmh 29.72 in1006.4 mb 0.00 in0.0 mm 0.00 in0.0 mm 0.15 in3.8 mm
07:50 PM 67.7°F19.8°C 61.3°F16.3°C 80% 9.0 mph WSW14.5 kmh WSW 15.0 mph24.1 kmh 29.72 in1006.4 mb 0.00 in0.0 mm 0.00 in0.0 mm 0.15 in3.8 mm
07:48 PM 67.8°F19.9°C 61.0°F16.1°C 79% 10.0 mph WSW16.1 kmh WSW 14.0 mph22.5 kmh 29.72 in1006.4 mb 0.00 in0.0 mm 0.00 in0.0 mm 0.15 in3.8 mm
07:46 PM 68.0°F20.0°C 61.2°F16.2°C 79% 10.0 mph WSW16.1 kmh WSW 16.0 mph25.7 kmh 29.71 in1006.1 mb 0.00 in0.0 mm 0.00 in0.0 mm 0.15 in3.8 mm
07:44 PM 68.2°F20.1°C 61.1°F16.2°C 78% 10.0 mph WSW16.1 kmh WSW 16.0 mph25.7 kmh 29.71 in1006.1 mb 0.00 in0.0 mm 0.00 in0.0 mm 0.15 in3.8 mm
07:42 PM 68.4°F20.2°C 61.3°F16.3°C 78% 10.0 mph WSW16.1 kmh WSW 16.0 mph25.7 kmh 29.71 in1006.1 mb 0.00 in0.0 mm 0.00 in0.0 mm 0.15 in3.8 mm
07:40 PM 68.6°F20.3°C 61.5°F16.4°C 78% 11.0 mph WSW17.7 kmh WSW 16.0 mph25.7 kmh 29.71 in1006.1 mb 0.00 in0.0 mm 0.00 in0.0 mm 0.15 in3.8 mm
07:38 PM 68.7°F20.4°C 61.6°F16.4°C 78% 11.0 mph WSW17.7 kmh WSW 16.0 mph25.7 kmh 29.71 in1006.1 mb 0.00 in0.0 mm 0.00 in0.0 mm 0.15 in3.8 mm
07:36 PM 68.8°F20.4°C 61.7°F16.5°C 78% 10.0 mph WSW16.1 kmh WSW 15.0 mph24.1 kmh 29.71 in1006.1 mb 0.00 in0.0 mm 0.00 in0.0 mm 0.15 in3.8 mm
07:34 PM 68.7°F20.4°C 61.2°F16.2°C 77% 10.0 mph WSW16.1 kmh WSW 15.0 mph24.1 kmh 29.70 in1005.8 mb 0.00 in0.0 mm 0.00 in0.0 mm 0.15 in3.8 mm
07:32 PM 68.7°F20.4°C 61.2°F16.2°C 77% 9.0 mph WSW14.5 kmh WSW 15.0 mph24.1 kmh 29.70 in1005.8 mb 0.00 in0.0 mm 0.00 in0.0 mm 0.15 in3.8 mm
07:30 PM 68.6°F20.3°C 61.5°F16.4°C 78% 8.0 mph WSW12.9 kmh WSW 14.0 mph22.5 kmh 29.70 in1005.8 mb 0.00 in0.0 mm 0.00 in0.0 mm 0.15 in3.8 mm
07:28 PM 68.5°F20.3°C 61.0°F16.1°C 77% 8.0 mph W12.9 kmh W 12.0 mph19.3 kmh 29.70 in1005.8 mb 0.00 in0.0 mm 0.00 in0.0 mm 0.15 in3.8 mm
07:26 PM 68.3°F20.2°C 61.2°F16.2°C 78% 8.0 mph W12.9 kmh W 12.0 mph19.3 kmh 29.70 in1005.8 mb 0.00 in0.0 mm 0.00 in0.0 mm 0.15 in3.8 mm
07:24 PM 68.3°F20.2°C 61.2°F16.2°C 78% 9.0 mph W14.5 kmh W 13.0 mph20.9 kmh 29.70 in1005.8 mb 0.00 in0.0 mm 0.00 in0.0 mm 0.15 in3.8 mm
07:22 PM 68.3°F20.2°C 60.8°F16.0°C 77% 9.0 mph W14.5 kmh W 14.0 mph22.5 kmh 29.70 in1005.8 mb 0.00 in0.0 mm 0.00 in0.0 mm 0.15 in3.8 mm
07:20 PM 68.3°F20.2°C 60.8°F16.0°C 77% 10.0 mph W16.1 kmh W 14.0 mph22.5 kmh 29.70 in1005.8 mb 0.00 in0.0 mm 0.00 in0.0 mm 0.15 in3.8 mm
07:18 PM 68.4°F20.2°C 60.5°F15.8°C 76% 10.0 mph W16.1 kmh W 15.0 mph24.1 kmh 29.70 in1005.8 mb 0.00 in0.0 mm 0.00 in0.0 mm 0.15 in3.8 mm
07:16 PM 68.5°F20.3°C 60.6°F15.9°C 76% 10.0 mph W16.1 kmh W 15.0 mph24.1 kmh 29.70 in1005.8 mb 0.00 in0.0 mm 0.00 in0.0 mm 0.15 in3.8 mm
07:14 PM 68.6°F20.3°C 60.4°F15.8°C 75% 10.0 mph W16.1 kmh W 15.0 mph24.1 kmh 29.70 in1005.8 mb 0.00 in0.0 mm 0.00 in0.0 mm 0.15 in3.8 mm
07:12 PM 68.7°F20.4°C 60.8°F16.0°C 76% 10.0 mph W16.1 kmh W 15.0 mph24.1 kmh 29.70 in1005.8 mb 0.00 in0.0 mm 0.00 in0.0 mm 0.15 in3.8 mm
07:10 PM 68.9°F20.5°C 60.6°F15.9°C 75% 10.0 mph WSW16.1 kmh WSW 15.0 mph24.1 kmh 29.70 in1005.8 mb 0.00 in0.0 mm 0.00 in0.0 mm 0.15 in3.8 mm
07:08 PM 69.1°F20.6°C 60.8°F16.0°C 75% 11.0 mph WSW17.7 kmh WSW 15.0 mph24.1 kmh 29.70 in1005.8 mb 0.00 in0.0 mm 0.00 in0.0 mm 0.15 in3.8 mm
07:06 PM 69.4°F20.8°C 60.8°F16.0°C 74% 11.0 mph WSW17.7 kmh WSW 15.0 mph24.1 kmh 29.70 in1005.8 mb 0.00 in0.0 mm 0.00 in0.0 mm 0.15 in3.8 mm
07:04 PM 69.6°F20.9°C 60.6°F15.9°C 73% 11.0 mph WSW17.7 kmh WSW 17.0 mph27.4 kmh 29.69 in1005.4 mb 0.00 in0.0 mm 0.00 in0.0 mm 0.15 in3.8 mm
07:02 PM 69.8°F21.0°C 60.4°F15.8°C 72% 12.0 mph WSW19.3 kmh WSW 17.0 mph27.4 kmh 29.69 in1005.4 mb 0.00 in0.0 mm 0.00 in0.0 mm 0.15 in3.8 mm
07:00 PM 69.9°F21.1°C 60.5°F15.8°C 72% 12.0 mph WSW19.3 kmh WSW 19.0 mph30.6 kmh 29.69 in1005.4 mb 0.00 in0.0 mm 0.00 in0.0 mm 0.15 in3.8 mm
06:58 PM 70.0°F21.1°C 61.3°F16.3°C 74% 12.0 mph WSW19.3 kmh WSW 19.0 mph30.6 kmh 29.70 in1005.8 mb 0.00 in0.0 mm 0.00 in0.0 mm 0.15 in3.8 mm
06:56 PM 69.9°F21.1°C 60.1°F15.6°C 71% 13.0 mph WSW20.9 kmh WSW 20.0 mph32.2 kmh 29.70 in1005.8 mb 0.00 in0.0 mm 0.00 in0.0 mm 0.15 in3.8 mm
06:54 PM 69.9°F21.1°C 60.5°F15.8°C 72% 13.0 mph WSW20.9 kmh WSW 20.0 mph32.2 kmh 29.70 in1005.8 mb 0.00 in0.0 mm 0.00 in0.0 mm 0.15 in3.8 mm
06:52 PM 69.8°F21.0°C 60.0°F15.6°C 71% 13.0 mph WSW20.9 kmh WSW 20.0 mph32.2 kmh 29.70 in1005.8 mb 0.00 in0.0 mm 0.00 in0.0 mm 0.15 in3.8 mm
06:50 PM 69.9°F21.1°C 60.5°F15.8°C 72% 12.0 mph WSW19.3 kmh WSW 20.0 mph32.2 kmh 29.70 in1005.8 mb 0.00 in0.0 mm 0.00 in0.0 mm 0.15 in3.8 mm
06:48 PM 70.1°F21.2°C 60.3°F15.7°C 71% 12.0 mph WSW19.3 kmh WSW 20.0 mph32.2 kmh 29.70 in1005.8 mb 0.00 in0.0 mm 0.00 in0.0 mm 0.15 in3.8 mm
06:46 PM 70.3°F21.3°C 60.4°F15.8°C 71% 13.0 mph W20.9 kmh W 19.0 mph30.6 kmh 29.70 in1005.8 mb 0.00 in0.0 mm 0.00 in0.0 mm 0.15 in3.8 mm
06:44 PM 70.7°F21.5°C 60.0°F15.6°C 69% 13.0 mph W20.9 kmh W 20.0 mph32.2 kmh 29.70 in1005.8 mb 0.00 in0.0 mm 0.00 in0.0 mm 0.15 in3.8 mm
06:42 PM 71.0°F21.7°C 60.3°F15.7°C 69% 13.0 mph W20.9 kmh W 20.0 mph32.2 kmh 29.69 in1005.4 mb 0.00 in0.0 mm 0.00 in0.0 mm 0.15 in3.8 mm
06:40 PM 71.4°F21.9°C 60.7°F15.9°C 69% 13.0 mph W20.9 kmh W 20.0 mph32.2 kmh 29.69 in1005.4 mb 0.00 in0.0 mm 0.00 in0.0 mm 0.15 in3.8 mm
06:38 PM 71.6°F22.0°C 60.5°F15.8°C 68% 14.0 mph W22.5 kmh W 20.0 mph32.2 kmh 29.69 in1005.4 mb 0.00 in0.0 mm 0.00 in0.0 mm 0.15 in3.8 mm
06:36 PM 71.8°F22.1°C 61.1°F16.2°C 69% 14.0 mph W22.5 kmh W 20.0 mph32.2 kmh 29.69 in1005.4 mb 0.00 in0.0 mm 0.00 in0.0 mm 0.15 in3.8 mm
06:34 PM 71.8°F22.1°C 61.5°F16.4°C 70% 14.0 mph W22.5 kmh W 19.0 mph30.6 kmh 29.68 in1005.1 mb 0.00 in0.0 mm 0.00 in0.0 mm 0.15 in3.8 mm
06:32 PM 71.9°F22.2°C 61.6°F16.4°C 70% 15.0 mph W24.1 kmh W 19.0 mph30.6 kmh 29.68 in1005.1 mb 0.00 in0.0 mm 0.00 in0.0 mm 0.15 in3.8 mm
06:30 PM 71.7°F22.1°C 61.0°F16.1°C 69% 15.0 mph W24.1 kmh W 19.0 mph30.6 kmh 29.68 in1005.1 mb 0.00 in0.0 mm 0.00 in0.0 mm 0.15 in3.8 mm
06:28 PM 71.7°F22.1°C 61.0°F16.1°C 69% 15.0 mph W24.1 kmh W 19.0 mph30.6 kmh 29.68 in1005.1 mb 0.00 in0.0 mm 0.00 in0.0 mm 0.15 in3.8 mm
06:26 PM 71.5°F21.9°C 61.6°F16.4°C 71% 14.0 mph W22.5 kmh W 19.0 mph30.6 kmh 29.68 in1005.1 mb 0.00 in0.0 mm 0.00 in0.0 mm 0.15 in3.8 mm
06:24 PM 71.3°F21.8°C 61.4°F16.3°C 71% 14.0 mph WSW22.5 kmh WSW 19.0 mph30.6 kmh 29.68 in1005.1 mb 0.00 in0.0 mm 0.00 in0.0 mm 0.15 in3.8 mm
06:22 PM 71.0°F21.7°C 61.5°F16.4°C 72% 13.0 mph W20.9 kmh W 19.0 mph30.6 kmh 29.68 in1005.1 mb 0.00 in0.0 mm 0.00 in0.0 mm 0.15 in3.8 mm
06:20 PM 70.9°F21.6°C 61.4°F16.3°C 72% 13.0 mph W20.9 kmh W 19.0 mph30.6 kmh 29.68 in1005.1 mb 0.00 in0.0 mm 0.00 in0.0 mm 0.15 in3.8 mm
06:18 PM 70.9°F21.6°C 61.0°F16.1°C 71% 13.0 mph W20.9 kmh W 18.0 mph29.0 kmh 29.68 in1005.1 mb 0.00 in0.0 mm 0.00 in0.0 mm 0.15 in3.8 mm
06:16 PM 71.1°F21.7°C 61.2°F16.2°C 71% 13.0 mph W20.9 kmh W 18.0 mph29.0 kmh 29.68 in1005.1 mb 0.00 in0.0 mm 0.00 in0.0 mm 0.15 in3.8 mm
06:14 PM 71.4°F21.9°C 61.5°F16.4°C 71% 14.0 mph W22.5 kmh W 19.0 mph30.6 kmh 29.67 in1004.7 mb 0.00 in0.0 mm 0.00 in0.0 mm 0.15 in3.8 mm
06:12 PM 71.6°F22.0°C 61.7°F16.5°C 71% 14.0 mph W22.5 kmh W 19.0 mph30.6 kmh 29.68 in1005.1 mb 0.00 in0.0 mm 0.00 in0.0 mm 0.15 in3.8 mm
06:10 PM 71.8°F22.1°C 61.9°F16.6°C 71% 14.0 mph W22.5 kmh W 19.0 mph30.6 kmh 29.67 in1004.7 mb 0.00 in0.0 mm 0.00 in0.0 mm 0.15 in3.8 mm
06:08 PM 71.9°F22.2°C 61.6°F16.4°C 70% 14.0 mph W22.5 kmh W 19.0 mph30.6 kmh 29.67 in1004.7 mb 0.00 in0.0 mm 0.00 in0.0 mm 0.15 in3.8 mm
06:06 PM 72.1°F22.3°C 61.8°F16.6°C 70% 15.0 mph W24.1 kmh W 21.0 mph33.8 kmh 29.67 in1004.7 mb 0.00 in0.0 mm 0.00 in0.0 mm 0.15 in3.8 mm
06:04 PM 72.1°F22.3°C 62.2°F16.8°C 71% 15.0 mph W24.1 kmh W 21.0 mph33.8 kmh 29.67 in1004.7 mb 0.00 in0.0 mm 0.00 in0.0 mm 0.15 in3.8 mm
06:02 PM 72.1°F22.3°C 61.4°F16.3°C 69% 15.0 mph W24.1 kmh W 21.0 mph33.8 kmh 29.67 in1004.7 mb 0.00 in0.0 mm 0.00 in0.0 mm 0.15 in3.8 mm
06:00 PM 72.3°F22.4°C 60.3°F15.7°C 66% 15.0 mph WSW24.1 kmh WSW 21.0 mph33.8 kmh 29.67 in1004.7 mb 0.00 in0.0 mm 0.00 in0.0 mm 0.15 in3.8 mm
05:58 PM 72.6°F22.6°C 60.6°F15.9°C 66% 16.0 mph WSW25.7 kmh WSW 23.0 mph37.0 kmh 29.66 in1004.4 mb 0.00 in0.0 mm 0.00 in0.0 mm 0.15 in3.8 mm
05:56 PM 73.0°F22.8°C 61.0°F16.1°C 66% 15.0 mph WSW24.1 kmh WSW 23.0 mph37.0 kmh 29.66 in1004.4 mb 0.00 in0.0 mm 0.00 in0.0 mm 0.15 in3.8 mm
05:54 PM 73.0°F22.8°C 61.4°F16.3°C 67% 16.0 mph WSW25.7 kmh WSW 23.0 mph37.0 kmh 29.66 in1004.4 mb 0.00 in0.0 mm 0.00 in0.0 mm 0.15 in3.8 mm
05:52 PM 72.9°F22.7°C 60.9°F16.1°C 66% 16.0 mph WSW25.7 kmh WSW 23.0 mph37.0 kmh 29.66 in1004.4 mb 0.00 in0.0 mm 0.00 in0.0 mm 0.15 in3.8 mm
05:50 PM 72.7°F22.6°C 60.3°F15.7°C 65% 15.0 mph WSW24.1 kmh WSW 23.0 mph37.0 kmh 29.66 in1004.4 mb 0.00 in0.0 mm 0.00 in0.0 mm 0.15 in3.8 mm
05:48 PM 72.5°F22.5°C 60.5°F15.8°C 66% 14.0 mph WSW22.5 kmh WSW 21.0 mph33.8 kmh 29.66 in1004.4 mb 0.00 in0.0 mm 0.00 in0.0 mm 0.15 in3.8 mm
05:46 PM 72.3°F22.4°C 59.9°F15.5°C 65% 14.0 mph WSW22.5 kmh WSW 21.0 mph33.8 kmh 29.66 in1004.4 mb 0.00 in0.0 mm 0.00 in0.0 mm 0.15 in3.8 mm
05:44 PM 72.4°F22.4°C 59.5°F15.3°C 64% 14.0 mph WSW22.5 kmh WSW 21.0 mph33.8 kmh 29.66 in1004.4 mb 0.00 in0.0 mm 0.00 in0.0 mm 0.15 in3.8 mm
05:42 PM 72.6°F22.6°C 59.7°F15.4°C 64% 14.0 mph WSW22.5 kmh WSW 21.0 mph33.8 kmh 29.65 in1004.1 mb 0.00 in0.0 mm 0.00 in0.0 mm 0.15 in3.8 mm
05:40 PM 72.9°F22.7°C 59.6°F15.3°C 63% 15.0 mph WSW24.1 kmh WSW 25.0 mph40.2 kmh 29.66 in1004.4 mb 0.00 in0.0 mm 0.00 in0.0 mm 0.15 in3.8 mm
05:38 PM 73.1°F22.8°C 58.8°F14.9°C 61% 15.0 mph WSW24.1 kmh WSW 25.0 mph40.2 kmh 29.65 in1004.1 mb 0.00 in0.0 mm 0.00 in0.0 mm 0.15 in3.8 mm
05:36 PM 73.2°F22.9°C 59.4°F15.2°C 62% 16.0 mph WSW25.7 kmh WSW 25.0 mph40.2 kmh 29.65 in1004.1 mb 0.00 in0.0 mm 0.00 in0.0 mm 0.15 in3.8 mm
05:34 PM 73.2°F22.9°C 59.8°F15.4°C 63% 16.0 mph WSW25.7 kmh WSW 25.0 mph40.2 kmh 29.65 in1004.1 mb 0.00 in0.0 mm 0.00 in0.0 mm 0.15 in3.8 mm
05:32 PM 73.1°F22.8°C 58.8°F14.9°C 61% 16.0 mph WSW25.7 kmh WSW 25.0 mph40.2 kmh 29.66 in1004.4 mb 0.00 in0.0 mm 0.00 in0.0 mm 0.15 in3.8 mm
05:30 PM 73.5°F23.1°C 58.8°F14.9°C 60% 16.0 mph WSW25.7 kmh WSW 24.0 mph38.6 kmh 29.65 in1004.1 mb 0.00 in0.0 mm 0.00 in0.0 mm 0.15 in3.8 mm
05:28 PM 73.8°F23.2°C 59.0°F15.0°C 60% 17.0 mph WSW27.4 kmh WSW 24.0 mph38.6 kmh 29.65 in1004.1 mb 0.00 in0.0 mm 0.00 in0.0 mm 0.15 in3.8 mm
05:26 PM 74.0°F23.3°C 59.2°F15.1°C 60% 17.0 mph WSW27.4 kmh WSW 24.0 mph38.6 kmh 29.65 in1004.1 mb 0.00 in0.0 mm 0.00 in0.0 mm 0.15 in3.8 mm
05:24 PM 74.0°F23.3°C 59.2°F15.1°C 60% 17.0 mph WSW27.4 kmh WSW 24.0 mph38.6 kmh 29.65 in1004.1 mb 0.00 in0.0 mm 0.00 in0.0 mm 0.15 in3.8 mm
05:22 PM 74.1°F23.4°C 59.3°F15.2°C 60% 18.0 mph WSW29.0 kmh WSW 27.0 mph43.5 kmh 29.65 in1004.1 mb 0.00 in0.0 mm 0.00 in0.0 mm 0.15 in3.8 mm
05:20 PM 74.2°F23.4°C 59.9°F15.5°C 61% 17.0 mph WSW27.4 kmh WSW 27.0 mph43.5 kmh 29.65 in1004.1 mb 0.00 in0.0 mm 0.00 in0.0 mm 0.15 in3.8 mm
05:18 PM 74.2°F23.4°C 59.9°F15.5°C 61% 18.0 mph WSW29.0 kmh WSW 27.0 mph43.5 kmh 29.65 in1004.1 mb 0.00 in0.0 mm 0.00 in0.0 mm 0.15 in3.8 mm
05:16 PM 74.2°F23.4°C 59.9°F15.5°C 61% 17.0 mph WSW27.4 kmh WSW 27.0 mph43.5 kmh 29.65 in1004.1 mb 0.00 in0.0 mm 0.00 in0.0 mm 0.15 in3.8 mm
05:14 PM 74.3°F23.5°C 60.0°F15.6°C 61% 17.0 mph WSW27.4 kmh WSW 27.0 mph43.5 kmh 29.65 in1004.1 mb 0.00 in0.0 mm 0.00 in0.0 mm 0.15 in3.8 mm
05:12 PM 74.3°F23.5°C 61.3°F16.3°C 64% 16.0 mph WSW25.7 kmh WSW 24.0 mph38.6 kmh 29.65 in1004.1 mb 0.00 in0.0 mm 0.00 in0.0 mm 0.15 in3.8 mm
05:10 PM 73.8°F23.2°C 61.3°F16.3°C 65% 16.0 mph WSW25.7 kmh WSW 24.0 mph38.6 kmh 29.64 in1003.7 mb 0.00 in0.0 mm 0.00 in0.0 mm 0.15 in3.8 mm
05:08 PM 73.3°F22.9°C 61.7°F16.5°C 67% 15.0 mph W24.1 kmh W 24.0 mph38.6 kmh 29.64 in1003.7 mb 0.00 in0.0 mm 0.00 in0.0 mm 0.15 in3.8 mm
05:06 PM 72.9°F22.7°C 61.3°F16.3°C 67% 15.0 mph W24.1 kmh W 22.0 mph35.4 kmh 29.64 in1003.7 mb 0.00 in0.0 mm 0.00 in0.0 mm 0.15 in3.8 mm
05:04 PM 72.9°F22.7°C 61.7°F16.5°C 68% 15.0 mph W24.1 kmh W 22.0 mph35.4 kmh 29.64 in1003.7 mb 0.00 in0.0 mm 0.00 in0.0 mm 0.15 in3.8 mm
05:02 PM 73.2°F22.9°C 61.2°F16.2°C 66% 16.0 mph W25.7 kmh W 24.0 mph38.6 kmh 29.64 in1003.7 mb 0.00 in0.0 mm 0.00 in0.0 mm 0.15 in3.8 mm
05:00 PM 73.6°F23.1°C 61.5°F16.4°C 66% 17.0 mph W27.4 kmh W 25.0 mph40.2 kmh 29.64 in1003.7 mb 0.00 in0.0 mm 0.00 in0.0 mm 0.15 in3.8 mm
04:58 PM 74.0°F23.3°C 61.9°F16.6°C 66% 18.0 mph W29.0 kmh W 26.0 mph41.8 kmh 29.64 in1003.7 mb 0.00 in0.0 mm 0.00 in0.0 mm 0.15 in3.8 mm
04:56 PM 74.3°F23.5°C 62.2°F16.8°C 66% 18.0 mph W29.0 kmh W 26.0 mph41.8 kmh 29.64 in1003.7 mb 0.00 in0.0 mm 0.00 in0.0 mm 0.15 in3.8 mm
04:54 PM 74.4°F23.6°C 61.4°F16.3°C 64% 19.0 mph W30.6 kmh W 26.0 mph41.8 kmh 29.63 in1003.4 mb 0.00 in0.0 mm 0.00 in0.0 mm 0.15 in3.8 mm
04:52 PM 74.6°F23.7°C 62.5°F16.9°C 66% 19.0 mph W30.6 kmh W 26.0 mph41.8 kmh 29.63 in1003.4 mb 0.00 in0.0 mm 0.00 in0.0 mm 0.15 in3.8 mm
04:50 PM 74.7°F23.7°C 61.3°F16.3°C 63% 18.0 mph W29.0 kmh W 26.0 mph41.8 kmh 29.63 in1003.4 mb 0.00 in0.0 mm 0.00 in0.0 mm 0.15 in3.8 mm
04:48 PM 74.8°F23.8°C 61.4°F16.3°C 63% 18.0 mph W29.0 kmh W 26.0 mph41.8 kmh 29.63 in1003.4 mb 0.00 in0.0 mm 0.00 in0.0 mm 0.15 in3.8 mm
04:46 PM 74.8°F23.8°C 61.8°F16.6°C 64% 17.0 mph W27.4 kmh W 26.0 mph41.8 kmh 29.63 in1003.4 mb 0.00 in0.0 mm 0.00 in0.0 mm 0.15 in3.8 mm
04:44 PM 74.8°F23.8°C 61.8°F16.6°C 64% 16.0 mph W25.7 kmh W 23.0 mph37.0 kmh 29.62 in1003.0 mb 0.00 in0.0 mm 0.00 in0.0 mm 0.15 in3.8 mm
04:42 PM 74.8°F23.8°C 62.2°F16.8°C 65% 15.0 mph WSW24.1 kmh WSW 23.0 mph37.0 kmh 29.62 in1003.0 mb 0.00 in0.0 mm 0.00 in0.0 mm 0.15 in3.8 mm
04:40 PM 74.8°F23.8°C 61.8°F16.6°C 64% 15.0 mph WSW24.1 kmh WSW 23.0 mph37.0 kmh 29.62 in1003.0 mb 0.00 in0.0 mm 0.00 in0.0 mm 0.15 in3.8 mm
04:38 PM 74.7°F23.7°C 59.4°F15.2°C 59% 15.0 mph SW24.1 kmh SW 22.0 mph35.4 kmh 29.62 in1003.0 mb 0.00 in0.0 mm 0.00 in0.0 mm 0.15 in3.8 mm
04:36 PM 74.8°F23.8°C 58.5°F14.7°C 57% 16.0 mph SW25.7 kmh SW 23.0 mph37.0 kmh 29.62 in1003.0 mb 0.00 in0.0 mm 0.00 in0.0 mm 0.15 in3.8 mm
04:34 PM 74.9°F23.8°C 59.1°F15.1°C 58% 16.0 mph SW25.7 kmh SW 24.0 mph38.6 kmh 29.62 in1003.0 mb 0.00 in0.0 mm 0.00 in0.0 mm 0.15 in3.8 mm
04:32 PM 75.1°F23.9°C 58.8°F14.9°C 57% 16.0 mph SW25.7 kmh SW 24.0 mph38.6 kmh 29.62 in1003.0 mb 0.00 in0.0 mm 0.00 in0.0 mm 0.15 in3.8 mm
04:30 PM 75.2°F24.0°C 58.4°F14.7°C 56% 16.0 mph WSW25.7 kmh WSW 24.0 mph38.6 kmh 29.62 in1003.0 mb 0.00 in0.0 mm 0.00 in0.0 mm 0.15 in3.8 mm
04:28 PM 75.4°F24.1°C 58.6°F14.8°C 56% 16.0 mph WSW25.7 kmh WSW 24.0 mph38.6 kmh 29.62 in1003.0 mb 0.00 in0.0 mm 0.00 in0.0 mm 0.15 in3.8 mm
04:26 PM 75.5°F24.2°C 59.2°F15.1°C 57% 16.0 mph WSW25.7 kmh WSW 24.0 mph38.6 kmh 29.62 in1003.0 mb 0.00 in0.0 mm 0.00 in0.0 mm 0.15 in3.8 mm
04:22 PM 75.1°F23.9°C 58.8°F14.9°C 57% 16.0 mph WSW25.7 kmh WSW 21.0 mph33.8 kmh 29.62 in1003.0 mb 0.00 in0.0 mm 0.00 in0.0 mm 0.15 in3.8 mm
04:20 PM 75.2°F24.0°C 58.9°F14.9°C 57% 16.0 mph WSW25.7 kmh WSW 21.0 mph33.8 kmh 29.61 in1002.7 mb 0.00 in0.0 mm 0.00 in0.0 mm 0.15 in3.8 mm
04:18 PM 75.2°F24.0°C 59.4°F15.2°C 58% 15.0 mph WSW24.1 kmh WSW 21.0 mph33.8 kmh 29.61 in1002.7 mb 0.00 in0.0 mm 0.00 in0.0 mm 0.15 in3.8 mm
04:16 PM 75.1°F23.9°C 59.3°F15.2°C 58% 15.0 mph WSW24.1 kmh WSW 21.0 mph33.8 kmh 29.61 in1002.7 mb 0.00 in0.0 mm 0.00 in0.0 mm 0.15 in3.8 mm
04:14 PM 74.8°F23.8°C 59.0°F15.0°C 58% 15.0 mph WSW24.1 kmh WSW 23.0 mph37.0 kmh 29.61 in1002.7 mb 0.00 in0.0 mm 0.00 in0.0 mm 0.15 in3.8 mm
04:12 PM 74.8°F23.8°C 58.5°F14.7°C 57% 16.0 mph WSW25.7 kmh WSW 24.0 mph38.6 kmh 29.62 in1003.0 mb 0.00 in0.0 mm 0.00 in0.0 mm 0.15 in3.8 mm
04:10 PM 75.0°F23.9°C 59.2°F15.1°C 58% 17.0 mph WSW27.4 kmh WSW 24.0 mph38.6 kmh 29.61 in1002.7 mb 0.00 in0.0 mm 0.00 in0.0 mm 0.15 in3.8 mm
04:08 PM 75.2°F24.0°C 58.4°F14.7°C 56% 18.0 mph WSW29.0 kmh WSW 24.0 mph38.6 kmh 29.62 in1003.0 mb 0.00 in0.0 mm 0.00 in0.0 mm 0.15 in3.8 mm
04:06 PM 75.4°F24.1°C 58.1°F14.5°C 55% 18.0 mph WSW29.0 kmh WSW 24.0 mph38.6 kmh 29.61 in1002.7 mb 0.00 in0.0 mm 0.00 in0.0 mm 0.15 in3.8 mm
04:04 PM 75.5°F24.2°C 58.2°F14.6°C 55% 18.0 mph WSW29.0 kmh WSW 24.0 mph38.6 kmh 29.61 in1002.7 mb 0.00 in0.0 mm 0.00 in0.0 mm 0.15 in3.8 mm
04:02 PM 75.5°F24.2°C 57.7°F14.3°C 54% 18.0 mph WSW29.0 kmh WSW 24.0 mph38.6 kmh 29.61 in1002.7 mb 0.00 in0.0 mm 0.00 in0.0 mm 0.15 in3.8 mm
04:00 PM 75.7°F24.3°C 59.4°F15.2°C 57% 18.0 mph SW29.0 kmh SW 26.0 mph41.8 kmh 29.61 in1002.7 mb 0.00 in0.0 mm 0.00 in0.0 mm 0.15 in3.8 mm
03:58 PM 75.7°F24.3°C 58.9°F14.9°C 56% 18.0 mph SW29.0 kmh SW 26.0 mph41.8 kmh 29.61 in1002.7 mb 0.00 in0.0 mm 0.00 in0.0 mm 0.15 in3.8 mm
03:56 PM 75.9°F24.4°C 58.1°F14.5°C 54% 17.0 mph SW27.4 kmh SW 26.0 mph41.8 kmh 29.61 in1002.7 mb 0.00 in0.0 mm 0.00 in0.0 mm 0.15 in3.8 mm
03:54 PM 75.9°F24.4°C 58.1°F14.5°C 54% 17.0 mph SW27.4 kmh SW 26.0 mph41.8 kmh 29.61 in1002.7 mb 0.00 in0.0 mm 0.00 in0.0 mm 0.15 in3.8 mm
03:52 PM 76.0°F24.4°C 58.7°F14.8°C 55% 17.0 mph SW27.4 kmh SW 26.0 mph41.8 kmh 29.61 in1002.7 mb 0.00 in0.0 mm 0.00 in0.0 mm 0.15 in3.8 mm
03:50 PM 75.9°F24.4°C 58.6°F14.8°C 55% 17.0 mph WSW27.4 kmh WSW 24.0 mph38.6 kmh 29.61 in1002.7 mb 0.00 in0.0 mm 0.00 in0.0 mm 0.15 in3.8 mm
03:48 PM 76.0°F24.4°C 58.2°F14.6°C 54% 18.0 mph WSW29.0 kmh WSW 33.0 mph53.1 kmh 29.61 in1002.7 mb 0.00 in0.0 mm 0.00 in0.0 mm 0.15 in3.8 mm
03:46 PM 76.4°F24.7°C 58.5°F14.7°C 54% 19.0 mph SW30.6 kmh SW 33.0 mph53.1 kmh 29.61 in1002.7 mb 0.00 in0.0 mm 0.00 in0.0 mm 0.15 in3.8 mm
03:44 PM 76.9°F24.9°C 57.9°F14.4°C 52% 21.0 mph SW33.8 kmh SW 33.0 mph53.1 kmh 29.60 in1002.4 mb 0.00 in0.0 mm 0.00 in0.0 mm 0.15 in3.8 mm
03:42 PM 77.7°F25.4°C 58.7°F14.8°C 52% 22.0 mph SW35.4 kmh SW 33.0 mph53.1 kmh 29.61 in1002.7 mb 0.00 in0.0 mm 0.00 in0.0 mm 0.15 in3.8 mm
03:40 PM 78.2°F25.7°C 59.7°F15.4°C 53% 23.0 mph SW37.0 kmh SW 33.0 mph53.1 kmh 29.60 in1002.4 mb 0.00 in0.0 mm 0.00 in0.0 mm 0.15 in3.8 mm
03:38 PM 78.4°F25.8°C 58.8°F14.9°C 51% 23.0 mph SW37.0 kmh SW 32.0 mph51.5 kmh 29.60 in1002.4 mb 0.00 in0.0 mm 0.00 in0.0 mm 0.15 in3.8 mm
03:36 PM 78.4°F25.8°C 58.8°F14.9°C 51% 23.0 mph SW37.0 kmh SW 31.0 mph49.9 kmh 29.60 in1002.4 mb 0.00 in0.0 mm 0.00 in0.0 mm 0.15 in3.8 mm
03:34 PM 78.7°F25.9°C 59.6°F15.3°C 52% 23.0 mph SW37.0 kmh SW 31.0 mph49.9 kmh 29.60 in1002.4 mb 0.00 in0.0 mm 0.00 in0.0 mm 0.15 in3.8 mm
03:32 PM 78.7°F25.9°C 58.5°F14.7°C 50% 23.0 mph SW37.0 kmh SW 32.0 mph51.5 kmh 29.60 in1002.4 mb 0.00 in0.0 mm 0.00 in0.0 mm 0.15 in3.8 mm
03:30 PM 78.7°F25.9°C 59.6°F15.3°C 52% 22.0 mph SW35.4 kmh SW 32.0 mph51.5 kmh 29.60 in1002.4 mb 0.00 in0.0 mm 0.00 in0.0 mm 0.15 in3.8 mm
03:28 PM 78.5°F25.8°C 58.9°F14.9°C 51% 21.0 mph SW33.8 kmh SW 32.0 mph51.5 kmh 29.60 in1002.4 mb 0.00 in0.0 mm 0.00 in0.0 mm 0.15 in3.8 mm
03:26 PM 78.4°F25.8°C 59.3°F15.2°C 52% 21.0 mph SW33.8 kmh SW 32.0 mph51.5 kmh 29.60 in1002.4 mb 0.00 in0.0 mm 0.00 in0.0 mm 0.15 in3.8 mm
03:24 PM 78.4°F25.8°C 59.3°F15.2°C 52% 21.0 mph SW33.8 kmh SW 32.0 mph51.5 kmh 29.60 in1002.4 mb 0.00 in0.0 mm 0.00 in0.0 mm 0.15 in3.8 mm
03:22 PM 78.5°F25.8°C 59.9°F15.5°C 53% 20.0 mph SW32.2 kmh SW 29.0 mph46.7 kmh 29.59 in1002.0 mb 0.00 in0.0 mm 0.00 in0.0 mm 0.15 in3.8 mm
03:20 PM 78.4°F25.8°C 60.4°F15.8°C 54% 21.0 mph SW33.8 kmh SW 27.0 mph43.5 kmh 29.60 in1002.4 mb 0.00 in0.0 mm 0.00 in0.0 mm 0.15 in3.8 mm
03:18 PM 78.0°F25.6°C 59.5°F15.3°C 53% 21.0 mph SW33.8 kmh SW 29.0 mph46.7 kmh 29.60 in1002.4 mb 0.00 in0.0 mm 0.00 in0.0 mm 0.15 in3.8 mm
03:16 PM 77.6°F25.3°C 60.7°F15.9°C 56% 21.0 mph SW33.8 kmh SW 29.0 mph46.7 kmh 29.60 in1002.4 mb 0.00 in0.0 mm 0.00 in0.0 mm 0.15 in3.8 mm
03:14 PM 77.5°F25.3°C 60.1°F15.6°C 55% 20.0 mph SW32.2 kmh SW 29.0 mph46.7 kmh 29.59 in1002.0 mb 0.00 in0.0 mm 0.00 in0.0 mm 0.15 in3.8 mm
03:12 PM 77.6°F25.3°C 60.2°F15.7°C 55% 20.0 mph SW32.2 kmh SW 29.0 mph46.7 kmh 29.59 in1002.0 mb 0.00 in0.0 mm 0.00 in0.0 mm 0.15 in3.8 mm
03:10 PM 77.7°F25.4°C 60.2°F15.7°C 55% 20.0 mph SW32.2 kmh SW 29.0 mph46.7 kmh 29.60 in1002.4 mb 0.00 in0.0 mm 0.00 in0.0 mm 0.15 in3.8 mm
03:08 PM 77.8°F25.4°C 61.3°F16.3°C 57% 19.0 mph SW30.6 kmh SW 26.0 mph41.8 kmh 29.60 in1002.4 mb 0.00 in0.0 mm 0.00 in0.0 mm 0.15 in3.8 mm
03:06 PM 77.5°F25.3°C 62.0°F16.7°C 59% 19.0 mph SW30.6 kmh SW 25.0 mph40.2 kmh 29.60 in1002.4 mb 0.00 in0.0 mm 0.00 in0.0 mm 0.15 in3.8 mm
03:04 PM 77.1°F25.1°C 62.1°F16.7°C 60% 19.0 mph SW30.6 kmh SW 27.0 mph43.5 kmh 29.60 in1002.4 mb 0.00 in0.0 mm 0.00 in0.0 mm 0.15 in3.8 mm
03:02 PM 76.7°F24.8°C 62.2°F16.8°C 61% 19.0 mph SW30.6 kmh SW 27.0 mph43.5 kmh 29.60 in1002.4 mb 0.00 in0.0 mm 0.00 in0.0 mm 0.15 in3.8 mm
03:00 PM 76.6°F24.8°C 62.1°F16.7°C 61% 19.0 mph SW30.6 kmh SW 27.0 mph43.5 kmh 29.61 in1002.7 mb 0.00 in0.0 mm 0.00 in0.0 mm 0.15 in3.8 mm
02:58 PM 76.6°F24.8°C 61.7°F16.5°C 60% 19.0 mph SW30.6 kmh SW 27.0 mph43.5 kmh 29.61 in1002.7 mb 0.00 in0.0 mm 0.00 in0.0 mm 0.15 in3.8 mm
02:56 PM 76.5°F24.7°C 61.6°F16.4°C 60% 19.0 mph SW30.6 kmh SW 27.0 mph43.5 kmh 29.60 in1002.4 mb 0.00 in0.0 mm 0.00 in0.0 mm 0.15 in3.8 mm
02:54 PM 76.4°F24.7°C 62.4°F16.9°C 62% 19.0 mph SW30.6 kmh SW 27.0 mph43.5 kmh 29.61 in1002.7 mb 0.00 in0.0 mm 0.00 in0.0 mm 0.15 in3.8 mm
02:52 PM 76.7°F24.8°C 61.8°F16.6°C 60% 19.0 mph SW30.6 kmh SW 27.0 mph43.5 kmh 29.61 in1002.7 mb 0.00 in0.0 mm 0.00 in0.0 mm 0.15 in3.8 mm
02:50 PM 77.1°F25.1°C 61.2°F16.2°C 58% 19.0 mph SW30.6 kmh SW 27.0 mph43.5 kmh 29.61 in1002.7 mb 0.00 in0.0 mm 0.00 in0.0 mm 0.15 in3.8 mm
02:48 PM 77.4°F25.2°C 61.5°F16.4°C 58% 19.0 mph SW30.6 kmh SW 27.0 mph43.5 kmh 29.61 in1002.7 mb 0.00 in0.0 mm 0.00 in0.0 mm 0.15 in3.8 mm
02:46 PM 77.7°F25.4°C 61.7°F16.5°C 58% 19.0 mph SW30.6 kmh SW 27.0 mph43.5 kmh 29.60 in1002.4 mb 0.00 in0.0 mm 0.00 in0.0 mm 0.15 in3.8 mm
02:44 PM 78.1°F25.6°C 62.6°F17.0°C 59% 17.0 mph SW27.4 kmh SW 27.0 mph43.5 kmh 29.60 in1002.4 mb 0.00 in0.0 mm 0.00 in0.0 mm 0.15 in3.8 mm
02:42 PM 78.3°F25.7°C 63.7°F17.6°C 61% 17.0 mph SW27.4 kmh SW 27.0 mph43.5 kmh 29.60 in1002.4 mb 0.00 in0.0 mm 0.00 in0.0 mm 0.15 in3.8 mm
02:40 PM 78.0°F25.6°C 63.5°F17.5°C 61% 18.0 mph SW29.0 kmh SW 27.0 mph43.5 kmh 29.60 in1002.4 mb 0.00 in0.0 mm 0.00 in0.0 mm 0.15 in3.8 mm
02:38 PM 77.7°F25.4°C 64.1°F17.8°C 63% 19.0 mph SW30.6 kmh SW 27.0 mph43.5 kmh 29.61 in1002.7 mb 0.00 in0.0 mm 0.00 in0.0 mm 0.15 in3.8 mm
02:36 PM 77.4°F25.2°C 63.4°F17.4°C 62% 19.0 mph SW30.6 kmh SW 27.0 mph43.5 kmh 29.60 in1002.4 mb 0.00 in0.0 mm 0.00 in0.0 mm 0.15 in3.8 mm
02:34 PM 77.1°F25.1°C 61.7°F16.5°C 59% 19.0 mph SW30.6 kmh SW 27.0 mph43.5 kmh 29.60 in1002.4 mb 0.00 in0.0 mm 0.00 in0.0 mm 0.15 in3.8 mm
02:32 PM 76.9°F24.9°C 62.9°F17.2°C 62% 19.0 mph SW30.6 kmh SW 27.0 mph43.5 kmh 29.61 in1002.7 mb 0.00 in0.0 mm 0.00 in0.0 mm 0.15 in3.8 mm
02:30 PM 76.4°F24.7°C 64.2°F17.9°C 66% 18.0 mph SW29.0 kmh SW 25.0 mph40.2 kmh 29.61 in1002.7 mb 0.00 in0.0 mm 0.00 in0.0 mm 0.15 in3.8 mm
02:28 PM 75.8°F24.3°C 63.6°F17.6°C 66% 18.0 mph SW29.0 kmh SW 25.0 mph40.2 kmh 29.60 in1002.4 mb 0.00 in0.0 mm 0.00 in0.0 mm 0.15 in3.8 mm
02:26 PM 75.3°F24.1°C 64.0°F17.8°C 68% 18.0 mph SSW29.0 kmh SSW 25.0 mph40.2 kmh 29.60 in1002.4 mb 0.00 in0.0 mm 0.00 in0.0 mm 0.15 in3.8 mm
02:24 PM 74.8°F23.8°C 63.1°F17.3°C 67% 19.0 mph SW30.6 kmh SW 25.0 mph40.2 kmh 29.61 in1002.7 mb 0.00 in0.0 mm 0.00 in0.0 mm 0.15 in3.8 mm
02:22 PM 74.7°F23.7°C 62.1°F16.7°C 65% 19.0 mph SSW30.6 kmh SSW 25.0 mph40.2 kmh 29.61 in1002.7 mb 0.00 in0.0 mm 0.00 in0.0 mm 0.15 in3.8 mm
02:20 PM 75.1°F23.9°C 62.1°F16.7°C 64% 20.0 mph SW32.2 kmh SW 26.0 mph41.8 kmh 29.61 in1002.7 mb 0.00 in0.0 mm 0.00 in0.0 mm 0.15 in3.8 mm
02:18 PM 75.6°F24.2°C 62.6°F17.0°C 64% 20.0 mph SSW32.2 kmh SSW 32.0 mph51.5 kmh 29.61 in1002.7 mb 0.00 in0.0 mm 0.00 in0.0 mm 0.15 in3.8 mm
02:16 PM 75.8°F24.3°C 61.8°F16.6°C 62% 21.0 mph SSW33.8 kmh SSW 32.0 mph51.5 kmh 29.61 in1002.7 mb 0.00 in0.0 mm 0.00 in0.0 mm 0.15 in3.8 mm
02:14 PM 76.2°F24.6°C 62.2°F16.8°C 62% 21.0 mph SSW33.8 kmh SSW 32.0 mph51.5 kmh 29.60 in1002.4 mb 0.00 in0.0 mm 0.00 in0.0 mm 0.15 in3.8 mm
02:12 PM 76.6°F24.8°C 62.6°F17.0°C 62% 21.0 mph SSW33.8 kmh SSW 32.0 mph51.5 kmh 29.60 in1002.4 mb 0.00 in0.0 mm 0.00 in0.0 mm 0.15 in3.8 mm
02:10 PM 76.9°F24.9°C 63.3°F17.4°C 63% 21.0 mph SSW33.8 kmh SSW 32.0 mph51.5 kmh 29.61 in1002.7 mb 0.00 in0.0 mm 0.00 in0.0 mm 0.15 in3.8 mm
02:08 PM 77.2°F25.1°C 64.5°F18.1°C 65% 21.0 mph SSW33.8 kmh SSW 28.0 mph45.1 kmh 29.60 in1002.4 mb 0.00 in0.0 mm 0.00 in0.0 mm 0.15 in3.8 mm
02:06 PM 77.1°F25.1°C 64.4°F18.0°C 65% 20.0 mph SSW32.2 kmh SSW 27.0 mph43.5 kmh 29.60 in1002.4 mb 0.00 in0.0 mm 0.00 in0.0 mm 0.15 in3.8 mm
02:04 PM 76.8°F24.9°C 65.0°F18.3°C 67% 20.0 mph SSW32.2 kmh SSW 27.0 mph43.5 kmh 29.60 in1002.4 mb 0.00 in0.0 mm 0.00 in0.0 mm 0.15 in3.8 mm
02:02 PM 76.3°F24.6°C 64.5°F18.1°C 67% 20.0 mph SSW32.2 kmh SSW 27.0 mph43.5 kmh 29.60 in1002.4 mb 0.00 in0.0 mm 0.00 in0.0 mm 0.15 in3.8 mm
02:00 PM 76.0°F24.4°C 64.7°F18.2°C 68% 20.0 mph SSW32.2 kmh SSW 29.0 mph46.7 kmh 29.60 in1002.4 mb 0.00 in0.0 mm 0.00 in0.0 mm 0.15 in3.8 mm
01:58 PM 76.0°F24.4°C 64.2°F17.9°C 67% 20.0 mph SSW32.2 kmh SSW 29.0 mph46.7 kmh 29.60 in1002.4 mb 0.00 in0.0 mm 0.00 in0.0 mm 0.15 in3.8 mm
01:56 PM 76.4°F24.7°C 64.2°F17.9°C 66% 21.0 mph SSW33.8 kmh SSW 29.0 mph46.7 kmh 29.61 in1002.7 mb 0.00 in0.0 mm 0.00 in0.0 mm 0.15 in3.8 mm
01:54 PM 76.6°F24.8°C 64.8°F18.2°C 67% 20.0 mph SSW32.2 kmh SSW 29.0 mph46.7 kmh 29.61 in1002.7 mb 0.00 in0.0 mm 0.00 in0.0 mm 0.15 in3.8 mm
01:52 PM 76.4°F24.7°C 65.5°F18.6°C 69% 20.0 mph SSW32.2 kmh SSW 29.0 mph46.7 kmh 29.60 in1002.4 mb 0.00 in0.0 mm 0.00 in0.0 mm 0.15 in3.8 mm
01:50 PM 75.9°F24.4°C 64.6°F18.1°C 68% 19.0 mph SSW30.6 kmh SSW 27.0 mph43.5 kmh 29.61 in1002.7 mb 0.00 in0.0 mm 0.00 in0.0 mm 0.15 in3.8 mm
01:48 PM 75.5°F24.2°C 64.2°F17.9°C 68% 19.0 mph SSW30.6 kmh SSW 27.0 mph43.5 kmh 29.61 in1002.7 mb 0.00 in0.0 mm 0.00 in0.0 mm 0.15 in3.8 mm
01:46 PM 75.1°F23.9°C 64.6°F18.1°C 70% 18.0 mph SSW29.0 kmh SSW 28.0 mph45.1 kmh 29.61 in1002.7 mb 0.00 in0.0 mm 0.00 in0.0 mm 0.15 in3.8 mm
01:44 PM 75.1°F23.9°C 64.2°F17.9°C 69% 18.0 mph SSW29.0 kmh SSW 28.0 mph45.1 kmh 29.61 in1002.7 mb 0.00 in0.0 mm 0.00 in0.0 mm 0.15 in3.8 mm
01:42 PM 75.2°F24.0°C 64.3°F17.9°C 69% 19.0 mph SSW30.6 kmh SSW 28.0 mph45.1 kmh 29.61 in1002.7 mb 0.00 in0.0 mm 0.00 in0.0 mm 0.15 in3.8 mm
01:40 PM 75.4°F24.1°C 63.7°F17.6°C 67% 20.0 mph SSW32.2 kmh SSW 32.0 mph51.5 kmh 29.61 in1002.7 mb 0.00 in0.0 mm 0.00 in0.0 mm 0.15 in3.8 mm
01:38 PM 75.7°F24.3°C 64.0°F17.8°C 67% 21.0 mph SSW33.8 kmh SSW 32.0 mph51.5 kmh 29.61 in1002.7 mb 0.00 in0.0 mm 0.00 in0.0 mm 0.15 in3.8 mm
01:36 PM 75.8°F24.3°C 64.9°F18.3°C 69% 21.0 mph SSW33.8 kmh SSW 32.0 mph51.5 kmh 29.61 in1002.7 mb 0.00 in0.0 mm 0.00 in0.0 mm 0.15 in3.8 mm
01:34 PM 76.0°F24.4°C 65.1°F18.4°C 69% 22.0 mph SSW35.4 kmh SSW 32.0 mph51.5 kmh 29.61 in1002.7 mb 0.00 in0.0 mm 0.00 in0.0 mm 0.15 in3.8 mm
01:32 PM 76.0°F24.4°C 64.7°F18.2°C 68% 23.0 mph SSW37.0 kmh SSW 32.0 mph51.5 kmh 29.61 in1002.7 mb 0.00 in0.0 mm 0.00 in0.0 mm 0.15 in3.8 mm
01:30 PM 75.8°F24.3°C 64.5°F18.1°C 68% 22.0 mph SSW35.4 kmh SSW 32.0 mph51.5 kmh 29.61 in1002.7 mb 0.00 in0.0 mm 0.00 in0.0 mm 0.15 in3.8 mm
01:28 PM 75.9°F24.4°C 64.6°F18.1°C 68% 21.0 mph SSW33.8 kmh SSW 32.0 mph51.5 kmh 29.62 in1003.0 mb 0.00 in0.0 mm 0.00 in0.0 mm 0.15 in3.8 mm
01:26 PM 76.0°F24.4°C 65.1°F18.4°C 69% 21.0 mph SSW33.8 kmh SSW 29.0 mph46.7 kmh 29.61 in1002.7 mb 0.00 in0.0 mm 0.00 in0.0 mm 0.15 in3.8 mm
01:24 PM 75.9°F24.4°C 65.0°F18.3°C 69% 22.0 mph SSW35.4 kmh SSW 29.0 mph46.7 kmh 29.61 in1002.7 mb 0.00 in0.0 mm 0.00 in0.0 mm 0.15 in3.8 mm
01:22 PM 75.7°F24.3°C 65.6°F18.7°C 71% 21.0 mph SSW33.8 kmh SSW 33.0 mph53.1 kmh 29.61 in1002.7 mb 0.00 in0.0 mm 0.00 in0.0 mm 0.15 in3.8 mm
01:20 PM 75.6°F24.2°C 65.9°F18.8°C 72% 21.0 mph S33.8 kmh S 33.0 mph53.1 kmh 29.61 in1002.7 mb 0.00 in0.0 mm 0.00 in0.0 mm 0.15 in3.8 mm
01:18 PM 75.4°F24.1°C 66.1°F18.9°C 73% 21.0 mph S33.8 kmh S 33.0 mph53.1 kmh 29.62 in1003.0 mb 0.00 in0.0 mm 0.00 in0.0 mm 0.15 in3.8 mm
01:16 PM 75.4°F24.1°C 65.7°F18.7°C 72% 22.0 mph S35.4 kmh S 33.0 mph53.1 kmh 29.62 in1003.0 mb 0.00 in0.0 mm 0.00 in0.0 mm 0.15 in3.8 mm
01:14 PM 75.5°F24.2°C 65.8°F18.8°C 72% 22.0 mph S35.4 kmh S 33.0 mph53.1 kmh 29.62 in1003.0 mb 0.00 in0.0 mm 0.00 in0.0 mm 0.15 in3.8 mm
01:12 PM 75.3°F24.1°C 66.0°F18.9°C 73% 21.0 mph S33.8 kmh S 30.0 mph48.3 kmh 29.61 in1002.7 mb 0.00 in0.0 mm 0.00 in0.0 mm 0.15 in3.8 mm
01:10 PM 75.2°F24.0°C 66.3°F19.1°C 74% 21.0 mph S33.8 kmh S 30.0 mph48.3 kmh 29.62 in1003.0 mb 0.00 in0.0 mm 0.00 in0.0 mm 0.15 in3.8 mm
01:08 PM 75.1°F23.9°C 66.2°F19.0°C 74% 21.0 mph SSW33.8 kmh SSW 30.0 mph48.3 kmh 29.62 in1003.0 mb 0.00 in0.0 mm 0.00 in0.0 mm 0.15 in3.8 mm
01:06 PM 74.9°F23.8°C 66.4°F19.1°C 75% 21.0 mph SSW33.8 kmh SSW 29.0 mph46.7 kmh 29.62 in1003.0 mb 0.00 in0.0 mm 0.00 in0.0 mm 0.15 in3.8 mm
01:04 PM 74.6°F23.7°C 66.1°F18.9°C 75% 21.0 mph SSW33.8 kmh SSW 28.0 mph45.1 kmh 29.62 in1003.0 mb 0.00 in0.0 mm 0.00 in0.0 mm 0.15 in3.8 mm
01:02 PM 74.4°F23.6°C 66.7°F19.3°C 77% 21.0 mph S33.8 kmh S 28.0 mph45.1 kmh 29.62 in1003.0 mb 0.00 in0.0 mm 0.00 in0.0 mm 0.15 in3.8 mm
01:00 PM 74.2°F23.4°C 66.5°F19.2°C 77% 21.0 mph S33.8 kmh S 29.0 mph46.7 kmh 29.62 in1003.0 mb 0.00 in0.0 mm 0.00 in0.0 mm 0.15 in3.8 mm
12:58 PM 73.9°F23.3°C 66.2°F19.0°C 77% 21.0 mph S33.8 kmh S 29.0 mph46.7 kmh 29.62 in1003.0 mb 0.00 in0.0 mm 0.00 in0.0 mm 0.15 in3.8 mm
12:56 PM 73.7°F23.2°C 66.4°F19.1°C 78% 21.0 mph S33.8 kmh S 29.0 mph46.7 kmh 29.62 in1003.0 mb 0.00 in0.0 mm 0.00 in0.0 mm 0.15 in3.8 mm
12:54 PM 73.6°F23.1°C 66.7°F19.3°C 79% 21.0 mph S33.8 kmh S 29.0 mph46.7 kmh 29.62 in1003.0 mb 0.00 in0.0 mm 0.00 in0.0 mm 0.15 in3.8 mm
12:52 PM 73.5°F23.1°C 66.6°F19.2°C 79% 21.0 mph S33.8 kmh S 29.0 mph46.7 kmh 29.62 in1003.0 mb 0.00 in0.0 mm 0.00 in0.0 mm 0.15 in3.8 mm
12:50 PM 73.3°F22.9°C 66.8°F19.3°C 80% 21.0 mph S33.8 kmh S 29.0 mph46.7 kmh 29.63 in1003.4 mb 0.00 in0.0 mm 0.00 in0.0 mm 0.15 in3.8 mm
12:48 PM 72.8°F22.7°C 65.9°F18.8°C 79% 22.0 mph S35.4 kmh S 31.0 mph49.9 kmh 29.63 in1003.4 mb 0.00 in0.0 mm 0.00 in0.0 mm 0.15 in3.8 mm
12:46 PM 72.6°F22.6°C 65.7°F18.7°C 79% 22.0 mph S35.4 kmh S 31.0 mph49.9 kmh 29.63 in1003.4 mb 0.00 in0.0 mm 0.00 in0.0 mm 0.15 in3.8 mm
12:44 PM 72.6°F22.6°C 65.3°F18.5°C 78% 22.0 mph S35.4 kmh S 31.0 mph49.9 kmh 29.63 in1003.4 mb 0.00 in0.0 mm 0.00 in0.0 mm 0.15 in3.8 mm
12:42 PM 72.6°F22.6°C 65.7°F18.7°C 79% 22.0 mph SSW35.4 kmh SSW 31.0 mph49.9 kmh 29.63 in1003.4 mb 0.00 in0.0 mm 0.00 in0.0 mm 0.15 in3.8 mm
12:40 PM 72.7°F22.6°C 65.8°F18.8°C 79% 22.0 mph SSW35.4 kmh SSW 31.0 mph49.9 kmh 29.63 in1003.4 mb 0.00 in0.0 mm 0.00 in0.0 mm 0.15 in3.8 mm
12:38 PM 72.7°F22.6°C 66.5°F19.2°C 81% 21.0 mph SSW33.8 kmh SSW 30.0 mph48.3 kmh 29.63 in1003.4 mb 0.00 in0.0 mm 0.00 in0.0 mm 0.15 in3.8 mm
12:36 PM 72.3°F22.4°C 66.1°F18.9°C 81% 21.0 mph S33.8 kmh S 30.0 mph48.3 kmh 29.63 in1003.4 mb 0.00 in0.0 mm 0.00 in0.0 mm 0.15 in3.8 mm
12:34 PM 71.9°F22.2°C 65.4°F18.6°C 80% 20.0 mph S32.2 kmh S 30.0 mph48.3 kmh 29.64 in1003.7 mb 0.00 in0.0 mm 0.00 in0.0 mm 0.15 in3.8 mm
12:32 PM 71.8°F22.1°C 66.4°F19.1°C 83% 19.0 mph S30.6 kmh S 29.0 mph46.7 kmh 29.64 in1003.7 mb 0.00 in0.0 mm 0.00 in0.0 mm 0.15 in3.8 mm
12:30 PM 71.6°F22.0°C 65.8°F18.8°C 82% 19.0 mph S30.6 kmh S 29.0 mph46.7 kmh 29.63 in1003.4 mb 0.00 in0.0 mm 0.00 in0.0 mm 0.15 in3.8 mm
12:28 PM 71.8°F22.1°C 67.0°F19.4°C 85% 18.0 mph S29.0 kmh S 29.0 mph46.7 kmh 29.63 in1003.4 mb 0.00 in0.0 mm 0.00 in0.0 mm 0.15 in3.8 mm
12:26 PM 71.6°F22.0°C 66.5°F19.2°C 84% 18.0 mph S29.0 kmh S 29.0 mph46.7 kmh 29.63 in1003.4 mb 0.00 in0.0 mm 0.00 in0.0 mm 0.15 in3.8 mm
12:24 PM 71.3°F21.8°C 66.2°F19.0°C 84% 18.0 mph S29.0 kmh S 27.0 mph43.5 kmh 29.63 in1003.4 mb 0.00 in0.0 mm 0.00 in0.0 mm 0.15 in3.8 mm
12:22 PM 71.2°F21.8°C 66.8°F19.3°C 86% 18.0 mph S29.0 kmh S 27.0 mph43.5 kmh 29.63 in1003.4 mb 0.00 in0.0 mm 0.00 in0.0 mm 0.15 in3.8 mm
12:20 PM 70.9°F21.6°C 66.5°F19.2°C 86% 18.0 mph S29.0 kmh S 27.0 mph43.5 kmh 29.63 in1003.4 mb 0.00 in0.0 mm 0.00 in0.0 mm 0.15 in3.8 mm
12:18 PM 70.4°F21.3°C 66.0°F18.9°C 86% 19.0 mph S30.6 kmh S 25.0 mph40.2 kmh 29.64 in1003.7 mb 0.00 in0.0 mm 0.00 in0.0 mm 0.15 in3.8 mm
12:16 PM 70.0°F21.1°C 66.0°F18.9°C 87% 19.0 mph S30.6 kmh S 27.0 mph43.5 kmh 29.64 in1003.7 mb 0.00 in0.0 mm 0.00 in0.0 mm 0.15 in3.8 mm
12:14 PM 69.5°F20.8°C 65.5°F18.6°C 87% 20.0 mph S32.2 kmh S 27.0 mph43.5 kmh 29.63 in1003.4 mb 0.00 in0.0 mm 0.00 in0.0 mm 0.15 in3.8 mm
12:12 PM 69.4°F20.8°C 65.4°F18.6°C 87% 20.0 mph S32.2 kmh S 27.0 mph43.5 kmh 29.63 in1003.4 mb 0.00 in0.0 mm 0.00 in0.0 mm 0.15 in3.8 mm
12:10 PM 69.5°F20.8°C 65.5°F18.6°C 87% 20.0 mph S32.2 kmh S 27.0 mph43.5 kmh 29.63 in1003.4 mb 0.00 in0.0 mm 0.00 in0.0 mm 0.15 in3.8 mm
12:08 PM 69.5°F20.8°C 65.1°F18.4°C 86% 20.0 mph S32.2 kmh S 27.0 mph43.5 kmh 29.63 in1003.4 mb 0.00 in0.0 mm 0.00 in0.0 mm 0.15 in3.8 mm
12:06 PM 69.7°F20.9°C 65.7°F18.7°C 87% 20.0 mph S32.2 kmh S 27.0 mph43.5 kmh 29.62 in1003.0 mb 0.00 in0.0 mm 0.00 in0.0 mm 0.15 in3.8 mm
12:04 PM 69.5°F20.8°C 65.8°F18.8°C 88% 20.0 mph S32.2 kmh S 27.0 mph43.5 kmh 29.63 in1003.4 mb 0.00 in0.0 mm 0.00 in0.0 mm 0.15 in3.8 mm
12:02 PM 69.1°F20.6°C 65.7°F18.7°C 89% 20.0 mph S32.2 kmh S 27.0 mph43.5 kmh 29.63 in1003.4 mb 0.00 in0.0 mm 0.00 in0.0 mm 0.15 in3.8 mm
12:00 PM 68.9°F20.5°C 65.5°F18.6°C 89% 20.0 mph S32.2 kmh S 27.0 mph43.5 kmh 29.63 in1003.4 mb 0.00 in0.0 mm 0.00 in0.0 mm 0.15 in3.8 mm
11:58 AM 68.6°F20.3°C 65.2°F18.4°C 89% 20.0 mph S32.2 kmh S 28.0 mph45.1 kmh 29.63 in1003.4 mb 0.00 in0.0 mm 0.00 in0.0 mm 0.15 in3.8 mm
11:56 AM 68.5°F20.3°C 65.1°F18.4°C 89% 20.0 mph S32.2 kmh S 28.0 mph45.1 kmh 29.63 in1003.4 mb 0.00 in0.0 mm 0.00 in0.0 mm 0.15 in3.8 mm
11:54 AM 68.5°F20.3°C 65.8°F18.8°C 91% 19.0 mph S30.6 kmh S 28.0 mph45.1 kmh 29.63 in1003.4 mb 0.00 in0.0 mm 0.00 in0.0 mm 0.15 in3.8 mm
11:52 AM 68.1°F20.1°C 65.4°F18.6°C 91% 19.0 mph S30.6 kmh S 28.0 mph45.1 kmh 29.64 in1003.7 mb 0.00 in0.0 mm 0.00 in0.0 mm 0.15 in3.8 mm
11:50 AM 67.8°F19.9°C 65.1°F18.4°C 91% 19.0 mph S30.6 kmh S 28.0 mph45.1 kmh 29.63 in1003.4 mb 0.00 in0.0 mm 0.00 in0.0 mm 0.15 in3.8 mm
11:48 AM 67.5°F19.7°C 64.5°F18.1°C 90% 19.0 mph S30.6 kmh S 26.0 mph41.8 kmh 29.63 in1003.4 mb 0.00 in0.0 mm 0.00 in0.0 mm 0.15 in3.8 mm
11:46 AM 67.4°F19.7°C 64.4°F18.0°C 90% 18.0 mph S29.0 kmh S 29.0 mph46.7 kmh 29.63 in1003.4 mb 0.00 in0.0 mm 0.00 in0.0 mm 0.15 in3.8 mm
11:44 AM 67.3°F19.6°C 64.3°F17.9°C 90% 19.0 mph S30.6 kmh S 29.0 mph46.7 kmh 29.64 in1003.7 mb 0.00 in0.0 mm 0.00 in0.0 mm 0.15 in3.8 mm
11:42 AM 67.4°F19.7°C 64.4°F18.0°C 90% 19.0 mph S30.6 kmh S 29.0 mph46.7 kmh 29.64 in1003.7 mb 0.00 in0.0 mm 0.00 in0.0 mm 0.15 in3.8 mm
11:40 AM 67.4°F19.7°C 64.0°F17.8°C 89% 19.0 mph S30.6 kmh S 29.0 mph46.7 kmh 29.64 in1003.7 mb 0.00 in0.0 mm 0.00 in0.0 mm 0.15 in3.8 mm
11:38 AM 67.4°F19.7°C 64.0°F17.8°C 89% 18.0 mph S29.0 kmh S 29.0 mph46.7 kmh 29.64 in1003.7 mb 0.00 in0.0 mm 0.00 in0.0 mm 0.15 in3.8 mm
11:36 AM 67.3°F19.6°C 63.9°F17.7°C 89% 18.0 mph S29.0 kmh S 26.0 mph41.8 kmh 29.64 in1003.7 mb 0.00 in0.0 mm 0.00 in0.0 mm 0.15 in3.8 mm
11:34 AM 67.3°F19.6°C 63.9°F17.7°C 89% 18.0 mph S29.0 kmh S 25.0 mph40.2 kmh 29.64 in1003.7 mb 0.00 in0.0 mm 0.00 in0.0 mm 0.15 in3.8 mm
11:32 AM 67.4°F19.7°C 64.0°F17.8°C 89% 18.0 mph S29.0 kmh S 24.0 mph38.6 kmh 29.64 in1003.7 mb 0.00 in0.0 mm 0.00 in0.0 mm 0.15 in3.8 mm
11:30 AM 67.4°F19.7°C 64.0°F17.8°C 89% 18.0 mph S29.0 kmh S 24.0 mph38.6 kmh 29.64 in1003.7 mb 0.00 in0.0 mm 0.00 in0.0 mm 0.15 in3.8 mm
11:28 AM 67.4°F19.7°C 64.0°F17.8°C 89% 18.0 mph S29.0 kmh S 25.0 mph40.2 kmh 29.64 in1003.7 mb 0.00 in0.0 mm 0.00 in0.0 mm 0.15 in3.8 mm
11:26 AM 67.4°F19.7°C 64.0°F17.8°C 89% 18.0 mph S29.0 kmh S 25.0 mph40.2 kmh 29.64 in1003.7 mb 0.00 in0.0 mm 0.00 in0.0 mm 0.15 in3.8 mm
11:24 AM 67.4°F19.7°C 64.0°F17.8°C 89% 17.0 mph S27.4 kmh S 25.0 mph40.2 kmh 29.64 in1003.7 mb 0.00 in0.0 mm 0.00 in0.0 mm 0.15 in3.8 mm
11:22 AM 67.5°F19.7°C 64.1°F17.8°C 89% 17.0 mph S27.4 kmh S 25.0 mph40.2 kmh 29.65 in1004.1 mb 0.00 in0.0 mm 0.00 in0.0 mm 0.15 in3.8 mm
11:20 AM 67.5°F19.7°C 64.1°F17.8°C 89% 17.0 mph S27.4 kmh S 25.0 mph40.2 kmh 29.65 in1004.1 mb 0.00 in0.0 mm 0.00 in0.0 mm 0.15 in3.8 mm
11:18 AM 67.5°F19.7°C 64.1°F17.8°C 89% 18.0 mph S29.0 kmh S 26.0 mph41.8 kmh 29.64 in1003.7 mb 0.00 in0.0 mm 0.00 in0.0 mm 0.15 in3.8 mm
11:16 AM 67.5°F19.7°C 64.1°F17.8°C 89% 18.0 mph S29.0 kmh S 26.0 mph41.8 kmh 29.64 in1003.7 mb 0.00 in0.0 mm 0.00 in0.0 mm 0.15 in3.8 mm
11:14 AM 67.5°F19.7°C 64.1°F17.8°C 89% 19.0 mph S30.6 kmh S 26.0 mph41.8 kmh 29.64 in1003.7 mb 0.00 in0.0 mm 0.00 in0.0 mm 0.15 in3.8 mm
11:12 AM 67.5°F19.7°C 64.1°F17.8°C 89% 19.0 mph S30.6 kmh S 26.0 mph41.8 kmh 29.65 in1004.1 mb 0.00 in0.0 mm 0.00 in0.0 mm 0.15 in3.8 mm
11:10 AM 67.5°F19.7°C 64.1°F17.8°C 89% 19.0 mph S30.6 kmh S 26.0 mph41.8 kmh 29.64 in1003.7 mb 0.00 in0.0 mm 0.00 in0.0 mm 0.15 in3.8 mm
11:08 AM 67.5°F19.7°C 64.1°F17.8°C 89% 18.0 mph S29.0 kmh S 26.0 mph41.8 kmh 29.64 in1003.7 mb 0.00 in0.0 mm 0.00 in0.0 mm 0.15 in3.8 mm
11:06 AM 67.6°F19.8°C 64.2°F17.9°C 89% 18.0 mph S29.0 kmh S 26.0 mph41.8 kmh 29.64 in1003.7 mb 0.00 in0.0 mm 0.00 in0.0 mm 0.15 in3.8 mm
11:04 AM 67.6°F19.8°C 64.2°F17.9°C 89% 18.0 mph S29.0 kmh S 26.0 mph41.8 kmh 29.64 in1003.7 mb 0.00 in0.0 mm 0.00 in0.0 mm 0.15 in3.8 mm
11:02 AM 67.6°F19.8°C 64.2°F17.9°C 89% 18.0 mph S29.0 kmh S 26.0 mph41.8 kmh 29.64 in1003.7 mb 0.00 in0.0 mm 0.00 in0.0 mm 0.15 in3.8 mm
11:00 AM 67.6°F19.8°C 64.2°F17.9°C 89% 18.0 mph S29.0 kmh S 26.0 mph41.8 kmh 29.64 in1003.7 mb 0.00 in0.0 mm 0.00 in0.0 mm 0.15 in3.8 mm
10:58 AM 67.6°F19.8°C 64.2°F17.9°C 89% 17.0 mph S27.4 kmh S 23.0 mph37.0 kmh 29.64 in1003.7 mb 0.00 in0.0 mm 0.00 in0.0 mm 0.15 in3.8 mm
10:56 AM 67.6°F19.8°C 64.2°F17.9°C 89% 17.0 mph S27.4 kmh S 24.0 mph38.6 kmh 29.65 in1004.1 mb 0.00 in0.0 mm 0.00 in0.0 mm 0.15 in3.8 mm
10:54 AM 67.6°F19.8°C 64.2°F17.9°C 89% 17.0 mph S27.4 kmh S 24.0 mph38.6 kmh 29.64 in1003.7 mb 0.00 in0.0 mm 0.00 in0.0 mm 0.15 in3.8 mm
10:52 AM 67.7°F19.8°C 64.0°F17.8°C 88% 18.0 mph S29.0 kmh S 27.0 mph43.5 kmh 29.65 in1004.1 mb 0.00 in0.0 mm 0.00 in0.0 mm 0.15 in3.8 mm
10:50 AM 67.8°F19.9°C 64.1°F17.8°C 88% 18.0 mph S29.0 kmh S 28.0 mph45.1 kmh 29.65 in1004.1 mb 0.00 in0.0 mm 0.00 in0.0 mm 0.15 in3.8 mm
10:48 AM 67.8°F19.9°C 64.1°F17.8°C 88% 17.0 mph S27.4 kmh S 28.0 mph45.1 kmh 29.65 in1004.1 mb 0.00 in0.0 mm 0.00 in0.0 mm 0.15 in3.8 mm
10:46 AM 67.8°F19.9°C 64.1°F17.8°C 88% 17.0 mph S27.4 kmh S 28.0 mph45.1 kmh 29.65 in1004.1 mb 0.00 in0.0 mm 0.00 in0.0 mm 0.15 in3.8 mm
10:44 AM 67.9°F19.9°C 64.2°F17.9°C 88% 17.0 mph S27.4 kmh S 28.0 mph45.1 kmh 29.65 in1004.1 mb 0.00 in0.0 mm 0.00 in0.0 mm 0.15 in3.8 mm
10:42 AM 67.9°F19.9°C 64.2°F17.9°C 88% 17.0 mph S27.4 kmh S 29.0 mph46.7 kmh 29.65 in1004.1 mb 0.00 in0.0 mm 0.00 in0.0 mm 0.15 in3.8 mm
10:40 AM 68.0°F20.0°C 64.3°F17.9°C 88% 18.0 mph S29.0 kmh S 30.0 mph48.3 kmh 29.65 in1004.1 mb 0.00 in0.0 mm 0.00 in0.0 mm 0.15 in3.8 mm
10:38 AM 68.0°F20.0°C 64.3°F17.9°C 88% 20.0 mph S32.2 kmh S 30.0 mph48.3 kmh 29.64 in1003.7 mb 0.00 in0.0 mm 0.00 in0.0 mm 0.15 in3.8 mm
10:36 AM 68.0°F20.0°C 64.0°F17.8°C 87% 21.0 mph S33.8 kmh S 30.0 mph48.3 kmh 29.65 in1004.1 mb 0.00 in0.0 mm 0.00 in0.0 mm 0.15 in3.8 mm
10:34 AM 68.1°F20.1°C 64.1°F17.8°C 87% 21.0 mph S33.8 kmh S 30.0 mph48.3 kmh 29.65 in1004.1 mb 0.00 in0.0 mm 0.00 in0.0 mm 0.15 in3.8 mm
10:32 AM 68.0°F20.0°C 64.0°F17.8°C 87% 21.0 mph S33.8 kmh S 30.0 mph48.3 kmh 29.64 in1003.7 mb 0.00 in0.0 mm 0.00 in0.0 mm 0.15 in3.8 mm
10:30 AM 68.0°F20.0°C 64.0°F17.8°C 87% 20.0 mph S32.2 kmh S 27.0 mph43.5 kmh 29.64 in1003.7 mb 0.00 in0.0 mm 0.00 in0.0 mm 0.15 in3.8 mm
10:28 AM 68.0°F20.0°C 64.3°F17.9°C 88% 19.0 mph S30.6 kmh S 27.0 mph43.5 kmh 29.64 in1003.7 mb 0.00 in0.0 mm 0.00 in0.0 mm 0.15 in3.8 mm
10:26 AM 67.9°F19.9°C 64.2°F17.9°C 88% 19.0 mph S30.6 kmh S 26.0 mph41.8 kmh 29.64 in1003.7 mb 0.00 in0.0 mm 0.00 in0.0 mm 0.15 in3.8 mm
10:24 AM 67.9°F19.9°C 64.2°F17.9°C 88% 18.0 mph S29.0 kmh S 25.0 mph40.2 kmh 29.64 in1003.7 mb 0.00 in0.0 mm 0.00 in0.0 mm 0.15 in3.8 mm
10:22 AM 67.8°F19.9°C 64.1°F17.8°C 88% 18.0 mph S29.0 kmh S 28.0 mph45.1 kmh 29.64 in1003.7 mb 0.00 in0.0 mm 0.00 in0.0 mm 0.15 in3.8 mm
10:20 AM 67.8°F19.9°C 64.1°F17.8°C 88% 19.0 mph S30.6 kmh S 32.0 mph51.5 kmh 29.65 in1004.1 mb 0.00 in0.0 mm 0.00 in0.0 mm 0.15 in3.8 mm
10:18 AM 67.8°F19.9°C 64.1°F17.8°C 88% 20.0 mph S32.2 kmh S 32.0 mph51.5 kmh 29.65 in1004.1 mb 0.00 in0.0 mm 0.00 in0.0 mm 0.15 in3.8 mm
10:16 AM 67.8°F19.9°C 64.1°F17.8°C 88% 20.0 mph S32.2 kmh S 32.0 mph51.5 kmh 29.65 in1004.1 mb 0.00 in0.0 mm 0.00 in0.0 mm 0.15 in3.8 mm
10:14 AM 67.8°F19.9°C 64.1°F17.8°C 88% 20.0 mph S32.2 kmh S 32.0 mph51.5 kmh 29.65 in1004.1 mb 0.00 in0.0 mm 0.00 in0.0 mm 0.15 in3.8 mm
10:12 AM 67.8°F19.9°C 64.1°F17.8°C 88% 20.0 mph S32.2 kmh S 32.0 mph51.5 kmh 29.65 in1004.1 mb 0.00 in0.0 mm 0.00 in0.0 mm 0.15 in3.8 mm
10:10 AM 67.8°F19.9°C 64.1°F17.8°C 88% 21.0 mph S33.8 kmh S 32.0 mph51.5 kmh 29.65 in1004.1 mb 0.00 in0.0 mm 0.00 in0.0 mm 0.15 in3.8 mm
10:08 AM 67.8°F19.9°C 64.1°F17.8°C 88% 19.0 mph S30.6 kmh S 29.0 mph46.7 kmh 29.65 in1004.1 mb 0.00 in0.0 mm 0.00 in0.0 mm 0.15 in3.8 mm
10:06 AM 67.8°F19.9°C 64.1°F17.8°C 88% 19.0 mph S30.6 kmh S 29.0 mph46.7 kmh 29.65 in1004.1 mb 0.00 in0.0 mm 0.00 in0.0 mm 0.15 in3.8 mm
10:04 AM 67.7°F19.8°C 64.0°F17.8°C 88% 20.0 mph S32.2 kmh S 29.0 mph46.7 kmh 29.64 in1003.7 mb 0.00 in0.0 mm 0.00 in0.0 mm 0.15 in3.8 mm
10:02 AM 67.7°F19.8°C 64.3°F17.9°C 89% 18.0 mph S29.0 kmh S 27.0 mph43.5 kmh 29.65 in1004.1 mb 0.00 in0.0 mm 0.00 in0.0 mm 0.15 in3.8 mm
10:00 AM 67.7°F19.8°C 64.3°F17.9°C 89% 18.0 mph S29.0 kmh S 27.0 mph43.5 kmh 29.64 in1003.7 mb 0.00 in0.0 mm 0.00 in0.0 mm 0.15 in3.8 mm
09:58 AM 67.7°F19.8°C 64.3°F17.9°C 89% 18.0 mph S29.0 kmh S 27.0 mph43.5 kmh 29.64 in1003.7 mb 0.00 in0.0 mm 0.00 in0.0 mm 0.15 in3.8 mm
09:56 AM 67.6°F19.8°C 64.2°F17.9°C 89% 18.0 mph S29.0 kmh S 27.0 mph43.5 kmh 29.65 in1004.1 mb 0.00 in0.0 mm 0.00 in0.0 mm 0.15 in3.8 mm
09:54 AM 67.5°F19.7°C 64.1°F17.8°C 89% 18.0 mph S29.0 kmh S 26.0 mph41.8 kmh 29.65 in1004.1 mb 0.00 in0.0 mm 0.00 in0.0 mm 0.15 in3.8 mm
09:52 AM 67.5°F19.7°C 64.5°F18.1°C 90% 17.0 mph S27.4 kmh S 26.0 mph41.8 kmh 29.64 in1003.7 mb 0.00 in0.0 mm 0.00 in0.0 mm 0.15 in3.8 mm
09:50 AM 67.5°F19.7°C 64.5°F18.1°C 90% 17.0 mph S27.4 kmh S 26.0 mph41.8 kmh 29.65 in1004.1 mb 0.00 in0.0 mm 0.00 in0.0 mm 0.15 in3.8 mm
09:48 AM 67.4°F19.7°C 64.4°F18.0°C 90% 17.0 mph S27.4 kmh S 26.0 mph41.8 kmh 29.64 in1003.7 mb 0.00 in0.0 mm 0.00 in0.0 mm 0.15 in3.8 mm
09:46 AM 67.4°F19.7°C 64.0°F17.8°C 89% 17.0 mph S27.4 kmh S 26.0 mph41.8 kmh 29.65 in1004.1 mb 0.00 in0.0 mm 0.00 in0.0 mm 0.15 in3.8 mm
09:44 AM 67.4°F19.7°C 64.4°F18.0°C 90% 17.0 mph S27.4 kmh S 25.0 mph40.2 kmh 29.65 in1004.1 mb 0.00 in0.0 mm 0.00 in0.0 mm 0.15 in3.8 mm
09:42 AM 67.2°F19.6°C 64.2°F17.9°C 90% 17.0 mph S27.4 kmh S 25.0 mph40.2 kmh 29.64 in1003.7 mb 0.00 in0.0 mm 0.00 in0.0 mm 0.15 in3.8 mm
09:40 AM 67.1°F19.5°C 64.1°F17.8°C 90% 17.0 mph S27.4 kmh S 25.0 mph40.2 kmh 29.64 in1003.7 mb 0.00 in0.0 mm 0.00 in0.0 mm 0.15 in3.8 mm
09:38 AM 67.0°F19.4°C 64.0°F17.8°C 90% 17.0 mph S27.4 kmh S 25.0 mph40.2 kmh 29.65 in1004.1 mb 0.00 in0.0 mm 0.00 in0.0 mm 0.15 in3.8 mm
09:36 AM 67.0°F19.4°C 64.0°F17.8°C 90% 17.0 mph S27.4 kmh S 23.0 mph37.0 kmh 29.64 in1003.7 mb 0.00 in0.0 mm 0.00 in0.0 mm 0.15 in3.8 mm
09:34 AM 67.0°F19.4°C 64.0°F17.8°C 90% 17.0 mph S27.4 kmh S 23.0 mph37.0 kmh 29.65 in1004.1 mb 0.00 in0.0 mm 0.00 in0.0 mm 0.15 in3.8 mm
09:32 AM 67.0°F19.4°C 63.6°F17.6°C 89% 17.0 mph S27.4 kmh S 23.0 mph37.0 kmh 29.64 in1003.7 mb 0.00 in0.0 mm 0.00 in0.0 mm 0.15 in3.8 mm
09:30 AM 67.0°F19.4°C 64.0°F17.8°C 90% 16.0 mph S25.7 kmh S 23.0 mph37.0 kmh 29.64 in1003.7 mb 0.00 in0.0 mm 0.00 in0.0 mm 0.15 in3.8 mm
09:28 AM 67.0°F19.4°C 64.0°F17.8°C 90% 15.0 mph S24.1 kmh S 23.0 mph37.0 kmh 29.64 in1003.7 mb 0.00 in0.0 mm 0.00 in0.0 mm 0.15 in3.8 mm
09:26 AM 67.0°F19.4°C 63.6°F17.6°C 89% 15.0 mph S24.1 kmh S 23.0 mph37.0 kmh 29.65 in1004.1 mb 0.00 in0.0 mm 0.00 in0.0 mm 0.15 in3.8 mm
09:24 AM 67.0°F19.4°C 64.0°F17.8°C 90% 15.0 mph S24.1 kmh S 23.0 mph37.0 kmh 29.65 in1004.1 mb 0.00 in0.0 mm 0.00 in0.0 mm 0.15 in3.8 mm
09:22 AM 67.0°F19.4°C 63.6°F17.6°C 89% 15.0 mph S24.1 kmh S 22.0 mph35.4 kmh 29.65 in1004.1 mb 0.00 in0.0 mm 0.00 in0.0 mm 0.15 in3.8 mm
09:20 AM 67.0°F19.4°C 63.6°F17.6°C 89% 15.0 mph S24.1 kmh S 22.0 mph35.4 kmh 29.65 in1004.1 mb 0.00 in0.0 mm 0.00 in0.0 mm 0.15 in3.8 mm
09:18 AM 67.0°F19.4°C 63.6°F17.6°C 89% 15.0 mph S24.1 kmh S 22.0 mph35.4 kmh 29.65 in1004.1 mb 0.00 in0.0 mm 0.00 in0.0 mm 0.15 in3.8 mm
09:16 AM 67.0°F19.4°C 64.0°F17.8°C 90% 15.0 mph S24.1 kmh S 21.0 mph33.8 kmh 29.64 in1003.7 mb 0.00 in0.0 mm 0.00 in0.0 mm 0.15 in3.8 mm
09:14 AM 67.0°F19.4°C 64.0°F17.8°C 90% 15.0 mph S24.1 kmh S 23.0 mph37.0 kmh 29.64 in1003.7 mb 0.00 in0.0 mm 0.00 in0.0 mm 0.15 in3.8 mm
09:12 AM 67.0°F19.4°C 64.0°F17.8°C 90% 15.0 mph S24.1 kmh S 23.0 mph37.0 kmh 29.65 in1004.1 mb 0.00 in0.0 mm 0.00 in0.0 mm 0.15 in3.8 mm
09:10 AM 67.0°F19.4°C 64.0°F17.8°C 90% 15.0 mph S24.1 kmh S 23.0 mph37.0 kmh 29.65 in1004.1 mb 0.00 in0.0 mm 0.00 in0.0 mm 0.15 in3.8 mm
09:08 AM 67.0°F19.4°C 64.0°F17.8°C 90% 15.0 mph S24.1 kmh S 23.0 mph37.0 kmh 29.65 in1004.1 mb 0.00 in0.0 mm 0.00 in0.0 mm 0.15 in3.8 mm
09:06 AM 67.0°F19.4°C 64.0°F17.8°C 90% 15.0 mph S24.1 kmh S 23.0 mph37.0 kmh 29.65 in1004.1 mb 0.00 in0.0 mm 0.00 in0.0 mm 0.15 in3.8 mm
09:04 AM 67.0°F19.4°C 64.0°F17.8°C 90% 16.0 mph S25.7 kmh S 23.0 mph37.0 kmh 29.65 in1004.1 mb 0.00 in0.0 mm 0.00 in0.0 mm 0.15 in3.8 mm
09:02 AM 67.0°F19.4°C 64.0°F17.8°C 90% 16.0 mph S25.7 kmh S 23.0 mph37.0 kmh 29.65 in1004.1 mb 0.00 in0.0 mm 0.00 in0.0 mm 0.15 in3.8 mm
09:00 AM 66.9°F19.4°C 63.9°F17.7°C 90% 15.0 mph S24.1 kmh S 23.0 mph37.0 kmh 29.65 in1004.1 mb 0.00 in0.0 mm 0.00 in0.0 mm 0.15 in3.8 mm
08:58 AM 66.9°F19.4°C 63.9°F17.7°C 90% 16.0 mph S25.7 kmh S 23.0 mph37.0 kmh 29.64 in1003.7 mb 0.00 in0.0 mm 0.00 in0.0 mm 0.15 in3.8 mm
08:56 AM 66.8°F19.3°C 63.8°F17.7°C 90% 17.0 mph S27.4 kmh S 26.0 mph41.8 kmh 29.65 in1004.1 mb 0.00 in0.0 mm 0.00 in0.0 mm 0.15 in3.8 mm
08:54 AM 66.8°F19.3°C 63.8°F17.7°C 90% 18.0 mph S29.0 kmh S 26.0 mph41.8 kmh 29.65 in1004.1 mb 0.00 in0.0 mm 0.00 in0.0 mm 0.15 in3.8 mm
08:52 AM 66.8°F19.3°C 63.8°F17.7°C 90% 18.0 mph S29.0 kmh S 26.0 mph41.8 kmh 29.65 in1004.1 mb 0.00 in0.0 mm 0.00 in0.0 mm 0.15 in3.8 mm
08:50 AM 66.7°F19.3°C 63.7°F17.6°C 90% 19.0 mph S30.6 kmh S 26.0 mph41.8 kmh 29.66 in1004.4 mb 0.00 in0.0 mm 0.00 in0.0 mm 0.15 in3.8 mm
08:48 AM 66.7°F19.3°C 63.7°F17.6°C 90% 19.0 mph S30.6 kmh S 26.0 mph41.8 kmh 29.66 in1004.4 mb 0.00 in0.0 mm 0.00 in0.0 mm 0.15 in3.8 mm
08:46 AM 66.7°F19.3°C 63.7°F17.6°C 90% 18.0 mph S29.0 kmh S 26.0 mph41.8 kmh 29.66 in1004.4 mb 0.00 in0.0 mm 0.00 in0.0 mm 0.15 in3.8 mm
08:44 AM 66.6°F19.2°C 63.6°F17.6°C 90% 17.0 mph S27.4 kmh S 25.0 mph40.2 kmh 29.65 in1004.1 mb 0.00 in0.0 mm 0.00 in0.0 mm 0.15 in3.8 mm
08:42 AM 66.5°F19.2°C 63.5°F17.5°C 90% 17.0 mph S27.4 kmh S 24.0 mph38.6 kmh 29.65 in1004.1 mb 0.00 in0.0 mm 0.00 in0.0 mm 0.15 in3.8 mm
08:40 AM 66.5°F19.2°C 63.8°F17.7°C 91% 17.0 mph S27.4 kmh S 24.0 mph38.6 kmh 29.66 in1004.4 mb 0.00 in0.0 mm 0.00 in0.0 mm 0.15 in3.8 mm
08:38 AM 66.4°F19.1°C 63.7°F17.6°C 91% 16.0 mph S25.7 kmh S 24.0 mph38.6 kmh 29.65 in1004.1 mb 0.00 in0.0 mm 0.00 in0.0 mm 0.15 in3.8 mm
08:36 AM 66.3°F19.1°C 63.6°F17.6°C 91% 16.0 mph S25.7 kmh S 24.0 mph38.6 kmh 29.65 in1004.1 mb 0.00 in0.0 mm 0.00 in0.0 mm 0.15 in3.8 mm
08:34 AM 66.3°F19.1°C 63.6°F17.6°C 91% 16.0 mph S25.7 kmh S 24.0 mph38.6 kmh 29.65 in1004.1 mb 0.00 in0.0 mm 0.00 in0.0 mm 0.15 in3.8 mm
08:32 AM 66.2°F19.0°C 63.5°F17.5°C 91% 15.0 mph S24.1 kmh S 24.0 mph38.6 kmh 29.65 in1004.1 mb 0.00 in0.0 mm 0.00 in0.0 mm 0.15 in3.8 mm
08:30 AM 66.1°F18.9°C 63.4°F17.4°C 91% 14.0 mph S22.5 kmh S 23.0 mph37.0 kmh 29.65 in1004.1 mb 0.00 in0.0 mm 0.00 in0.0 mm 0.15 in3.8 mm
08:28 AM 66.1°F18.9°C 63.4°F17.4°C 91% 14.0 mph S22.5 kmh S 23.0 mph37.0 kmh 29.65 in1004.1 mb 0.00 in0.0 mm 0.00 in0.0 mm 0.15 in3.8 mm
08:26 AM 66.1°F18.9°C 63.4°F17.4°C 91% 15.0 mph S24.1 kmh S 23.0 mph37.0 kmh 29.65 in1004.1 mb 0.00 in0.0 mm 0.00 in0.0 mm 0.15 in3.8 mm
08:24 AM 66.1°F18.9°C 63.4°F17.4°C 91% 15.0 mph S24.1 kmh S 21.0 mph33.8 kmh 29.65 in1004.1 mb 0.00 in0.0 mm 0.00 in0.0 mm 0.15 in3.8 mm
08:22 AM 66.0°F18.9°C 63.3°F17.4°C 91% 15.0 mph S24.1 kmh S 21.0 mph33.8 kmh 29.66 in1004.4 mb 0.00 in0.0 mm 0.00 in0.0 mm 0.15 in3.8 mm
08:20 AM 66.0°F18.9°C 63.3°F17.4°C 91% 15.0 mph S24.1 kmh S 21.0 mph33.8 kmh 29.65 in1004.1 mb 0.00 in0.0 mm 0.00 in0.0 mm 0.15 in3.8 mm
08:18 AM 66.0°F18.9°C 63.3°F17.4°C 91% 15.0 mph S24.1 kmh S 21.0 mph33.8 kmh 29.65 in1004.1 mb 0.00 in0.0 mm 0.00 in0.0 mm 0.15 in3.8 mm
08:16 AM 66.0°F18.9°C 63.3°F17.4°C 91% 16.0 mph S25.7 kmh S 24.0 mph38.6 kmh 29.65 in1004.1 mb 0.00 in0.0 mm 0.00 in0.0 mm 0.15 in3.8 mm
08:14 AM 66.0°F18.9°C 63.3°F17.4°C 91% 16.0 mph S25.7 kmh S 27.0 mph43.5 kmh 29.65 in1004.1 mb 0.00 in0.0 mm 0.00 in0.0 mm 0.15 in3.8 mm
08:12 AM 66.0°F18.9°C 63.3°F17.4°C 91% 17.0 mph S27.4 kmh S 27.0 mph43.5 kmh 29.66 in1004.4 mb 0.00 in0.0 mm 0.00 in0.0 mm 0.15 in3.8 mm
08:10 AM 66.0°F18.9°C 63.3°F17.4°C 91% 18.0 mph S29.0 kmh S 27.0 mph43.5 kmh 29.65 in1004.1 mb 0.00 in0.0 mm 0.00 in0.0 mm 0.15 in3.8 mm
08:08 AM 66.0°F18.9°C 63.3°F17.4°C 91% 19.0 mph S30.6 kmh S 27.0 mph43.5 kmh 29.66 in1004.4 mb 0.00 in0.0 mm 0.00 in0.0 mm 0.15 in3.8 mm
08:06 AM 66.0°F18.9°C 63.0°F17.2°C 90% 19.0 mph S30.6 kmh S 27.0 mph43.5 kmh 29.66 in1004.4 mb 0.00 in0.0 mm 0.00 in0.0 mm 0.15 in3.8 mm
08:04 AM 66.1°F18.9°C 63.1°F17.3°C 90% 19.0 mph S30.6 kmh S 28.0 mph45.1 kmh 29.66 in1004.4 mb 0.00 in0.0 mm 0.00 in0.0 mm 0.15 in3.8 mm
08:02 AM 66.3°F19.1°C 63.3°F17.4°C 90% 18.0 mph S29.0 kmh S 28.0 mph45.1 kmh 29.66 in1004.4 mb 0.00 in0.0 mm 0.00 in0.0 mm 0.15 in3.8 mm
08:00 AM 66.4°F19.1°C 63.1°F17.3°C 89% 18.0 mph S29.0 kmh S 28.0 mph45.1 kmh 29.65 in1004.1 mb 0.00 in0.0 mm 0.00 in0.0 mm 0.15 in3.8 mm
07:58 AM 66.6°F19.2°C 63.3°F17.4°C 89% 17.0 mph S27.4 kmh S 28.0 mph45.1 kmh 29.65 in1004.1 mb 0.00 in0.0 mm 0.00 in0.0 mm 0.15 in3.8 mm
07:56 AM 66.8°F19.3°C 63.1°F17.3°C 88% 17.0 mph S27.4 kmh S 28.0 mph45.1 kmh 29.65 in1004.1 mb 0.00 in0.0 mm 0.00 in0.0 mm 0.15 in3.8 mm
07:54 AM 67.0°F19.4°C 63.3°F17.4°C 88% 16.0 mph S25.7 kmh S 26.0 mph41.8 kmh 29.65 in1004.1 mb 0.00 in0.0 mm 0.00 in0.0 mm 0.15 in3.8 mm
07:52 AM 67.1°F19.5°C 63.1°F17.3°C 87% 15.0 mph S24.1 kmh S 26.0 mph41.8 kmh 29.65 in1004.1 mb 0.00 in0.0 mm 0.00 in0.0 mm 0.15 in3.8 mm
07:50 AM 67.2°F19.6°C 63.2°F17.3°C 87% 15.0 mph S24.1 kmh S 26.0 mph41.8 kmh 29.65 in1004.1 mb 0.00 in0.0 mm 0.00 in0.0 mm 0.15 in3.8 mm
07:48 AM 67.2°F19.6°C 63.2°F17.3°C 87% 15.0 mph S24.1 kmh S 26.0 mph41.8 kmh 29.65 in1004.1 mb 0.00 in0.0 mm 0.00 in0.0 mm 0.15 in3.8 mm
07:46 AM 67.4°F19.7°C 63.4°F17.4°C 87% 14.0 mph S22.5 kmh S 22.0 mph35.4 kmh 29.64 in1003.7 mb 0.00 in0.0 mm 0.00 in0.0 mm 0.15 in3.8 mm
07:44 AM 67.5°F19.7°C 63.2°F17.3°C 86% 14.0 mph S22.5 kmh S 23.0 mph37.0 kmh 29.65 in1004.1 mb 0.00 in0.0 mm 0.00 in0.0 mm 0.15 in3.8 mm
07:42 AM 67.6°F19.8°C 63.3°F17.4°C 86% 14.0 mph S22.5 kmh S 23.0 mph37.0 kmh 29.64 in1003.7 mb 0.00 in0.0 mm 0.00 in0.0 mm 0.15 in3.8 mm
07:40 AM 67.6°F19.8°C 63.3°F17.4°C 86% 15.0 mph S24.1 kmh S 26.0 mph41.8 kmh 29.64 in1003.7 mb 0.00 in0.0 mm 0.00 in0.0 mm 0.15 in3.8 mm
07:38 AM 67.7°F19.8°C 63.4°F17.4°C 86% 15.0 mph S24.1 kmh S 26.0 mph41.8 kmh 29.64 in1003.7 mb 0.00 in0.0 mm 0.00 in0.0 mm 0.15 in3.8 mm
07:36 AM 67.7°F19.8°C 63.4°F17.4°C 86% 15.0 mph S24.1 kmh S 26.0 mph41.8 kmh 29.64 in1003.7 mb 0.00 in0.0 mm 0.00 in0.0 mm 0.15 in3.8 mm
07:34 AM 67.7°F19.8°C 63.4°F17.4°C 86% 15.0 mph S24.1 kmh S 26.0 mph41.8 kmh 29.64 in1003.7 mb 0.00 in0.0 mm 0.00 in0.0 mm 0.15 in3.8 mm
07:32 AM 67.7°F19.8°C 63.4°F17.4°C 86% 15.0 mph S24.1 kmh S 26.0 mph41.8 kmh 29.64 in1003.7 mb 0.00 in0.0 mm 0.00 in0.0 mm 0.15 in3.8 mm
07:30 AM 67.7°F19.8°C 63.4°F17.4°C 86% 14.0 mph S22.5 kmh S 23.0 mph37.0 kmh 29.64 in1003.7 mb 0.00 in0.0 mm 0.00 in0.0 mm 0.15 in3.8 mm
07:28 AM 67.7°F19.8°C 63.7°F17.6°C 87% 14.0 mph S22.5 kmh S 20.0 mph32.2 kmh 29.64 in1003.7 mb 0.00 in0.0 mm 0.00 in0.0 mm 0.15 in3.8 mm
07:26 AM 67.7°F19.8°C 63.7°F17.6°C 87% 15.0 mph S24.1 kmh S 20.0 mph32.2 kmh 29.64 in1003.7 mb 0.00 in0.0 mm 0.00 in0.0 mm 0.15 in3.8 mm
07:24 AM 67.7°F19.8°C 63.7°F17.6°C 87% 15.0 mph S24.1 kmh S 20.0 mph32.2 kmh 29.64 in1003.7 mb 0.00 in0.0 mm 0.00 in0.0 mm 0.15 in3.8 mm
07:22 AM 67.7°F19.8°C 63.7°F17.6°C 87% 14.0 mph S22.5 kmh S 20.0 mph32.2 kmh 29.64 in1003.7 mb 0.00 in0.0 mm 0.00 in0.0 mm 0.15 in3.8 mm
07:20 AM 67.7°F19.8°C 63.7°F17.6°C 87% 14.0 mph S22.5 kmh S 20.0 mph32.2 kmh 29.64 in1003.7 mb 0.00 in0.0 mm 0.00 in0.0 mm 0.15 in3.8 mm
07:18 AM 67.7°F19.8°C 63.7°F17.6°C 87% 14.0 mph S22.5 kmh S 21.0 mph33.8 kmh 29.64 in1003.7 mb 0.00 in0.0 mm 0.00 in0.0 mm 0.15 in3.8 mm
07:16 AM 67.7°F19.8°C 63.7°F17.6°C 87% 13.0 mph S20.9 kmh S 21.0 mph33.8 kmh 29.64 in1003.7 mb 0.00 in0.0 mm 0.00 in0.0 mm 0.15 in3.8 mm
07:14 AM 67.7°F19.8°C 63.7°F17.6°C 87% 13.0 mph S20.9 kmh S 21.0 mph33.8 kmh 29.64 in1003.7 mb 0.00 in0.0 mm 0.00 in0.0 mm 0.15 in3.8 mm
07:12 AM 67.7°F19.8°C 63.7°F17.6°C 87% 14.0 mph S22.5 kmh S 21.0 mph33.8 kmh 29.64 in1003.7 mb 0.00 in0.0 mm 0.00 in0.0 mm 0.15 in3.8 mm
07:10 AM 67.6°F19.8°C 63.9°F17.7°C 88% 13.0 mph S20.9 kmh S 21.0 mph33.8 kmh 29.64 in1003.7 mb 0.00 in0.0 mm 0.00 in0.0 mm 0.15 in3.8 mm
07:08 AM 67.6°F19.8°C 63.9°F17.7°C 88% 12.0 mph S19.3 kmh S 19.0 mph30.6 kmh 29.64 in1003.7 mb 0.00 in0.0 mm 0.00 in0.0 mm 0.15 in3.8 mm
07:06 AM 67.5°F19.7°C 63.8°F17.7°C 88% 12.0 mph S19.3 kmh S 19.0 mph30.6 kmh 29.64 in1003.7 mb 0.00 in0.0 mm 0.00 in0.0 mm 0.15 in3.8 mm
07:04 AM 67.5°F19.7°C 63.8°F17.7°C 88% 11.0 mph S17.7 kmh S 17.0 mph27.4 kmh 29.64 in1003.7 mb 0.00 in0.0 mm 0.00 in0.0 mm 0.15 in3.8 mm
07:02 AM 67.5°F19.7°C 64.1°F17.8°C 89% 10.0 mph S16.1 kmh S 17.0 mph27.4 kmh 29.64 in1003.7 mb 0.00 in0.0 mm 0.00 in0.0 mm 0.15 in3.8 mm
07:00 AM 67.5°F19.7°C 64.1°F17.8°C 89% 10.0 mph S16.1 kmh S 17.0 mph27.4 kmh 29.64 in1003.7 mb 0.00 in0.0 mm 0.00 in0.0 mm 0.15 in3.8 mm
06:58 AM 67.5°F19.7°C 64.1°F17.8°C 89% 9.0 mph S14.5 kmh S 17.0 mph27.4 kmh 29.64 in1003.7 mb 0.00 in0.0 mm 0.00 in0.0 mm 0.15 in3.8 mm
06:56 AM 67.4°F19.7°C 64.0°F17.8°C 89% 9.0 mph S14.5 kmh S 16.0 mph25.7 kmh 29.64 in1003.7 mb 0.00 in0.0 mm 0.00 in0.0 mm 0.15 in3.8 mm
06:54 AM 67.4°F19.7°C 64.0°F17.8°C 89% 8.0 mph S12.9 kmh S 13.0 mph20.9 kmh 29.64 in1003.7 mb 0.00 in0.0 mm 0.00 in0.0 mm 0.15 in3.8 mm
06:50 AM 67.3°F19.6°C 64.3°F17.9°C 90% 7.0 mph S11.3 kmh S 13.0 mph20.9 kmh 29.64 in1003.7 mb 0.00 in0.0 mm 0.00 in0.0 mm 0.00 in0.0 mm
06:48 AM 67.3°F19.6°C 64.3°F17.9°C 90% 6.0 mph S9.7 kmh S 12.0 mph19.3 kmh 29.64 in1003.7 mb 0.00 in0.0 mm 0.00 in0.0 mm 0.00 in0.0 mm
06:46 AM 67.3°F19.6°C 64.3°F17.9°C 90% 6.0 mph S9.7 kmh S 12.0 mph19.3 kmh 29.64 in1003.7 mb 0.00 in0.0 mm 0.00 in0.0 mm 0.00 in0.0 mm
06:44 AM 67.3°F19.6°C 64.3°F17.9°C 90% 5.0 mph S8.0 kmh S 11.0 mph17.7 kmh 29.64 in1003.7 mb 0.00 in0.0 mm 0.00 in0.0 mm 0.00 in0.0 mm
06:42 AM 67.3°F19.6°C 64.3°F17.9°C 90% 5.0 mph S8.0 kmh S 12.0 mph19.3 kmh 29.64 in1003.7 mb 0.00 in0.0 mm 0.00 in0.0 mm 0.00 in0.0 mm
06:40 AM 67.3°F19.6°C 64.3°F17.9°C 90% 5.0 mph S8.0 kmh S 12.0 mph19.3 kmh 29.64 in1003.7 mb 0.00 in0.0 mm 0.00 in0.0 mm 0.00 in0.0 mm
06:38 AM 67.2°F19.6°C 64.2°F17.9°C 90% 5.0 mph S8.0 kmh S 12.0 mph19.3 kmh 29.64 in1003.7 mb 0.00 in0.0 mm 0.00 in0.0 mm 0.00 in0.0 mm
06:36 AM 67.2°F19.6°C 64.2°F17.9°C 90% 5.0 mph S8.0 kmh S 12.0 mph19.3 kmh 29.64 in1003.7 mb 0.00 in0.0 mm 0.00 in0.0 mm 0.00 in0.0 mm
06:34 AM 67.2°F19.6°C 64.2°F17.9°C 90% 5.0 mph S8.0 kmh S 12.0 mph19.3 kmh 29.64 in1003.7 mb 0.00 in0.0 mm 0.00 in0.0 mm 0.00 in0.0 mm
06:32 AM 67.2°F19.6°C 64.2°F17.9°C 90% 5.0 mph S8.0 kmh S 11.0 mph17.7 kmh 29.64 in1003.7 mb 0.00 in0.0 mm 0.00 in0.0 mm 0.00 in0.0 mm
06:30 AM 67.2°F19.6°C 64.2°F17.9°C 90% 4.0 mph S6.4 kmh S 8.0 mph12.9 kmh 29.64 in1003.7 mb 0.00 in0.0 mm 0.00 in0.0 mm 0.00 in0.0 mm
06:28 AM 67.3°F19.6°C 64.3°F17.9°C 90% 5.0 mph S8.0 kmh S 9.0 mph14.5 kmh 29.64 in1003.7 mb 0.00 in0.0 mm 0.00 in0.0 mm 0.00 in0.0 mm
06:26 AM 67.3°F19.6°C 64.3°F17.9°C 90% 4.0 mph S6.4 kmh S 11.0 mph17.7 kmh 29.64 in1003.7 mb 0.00 in0.0 mm 0.00 in0.0 mm 0.00 in0.0 mm
06:24 AM 67.3°F19.6°C 64.3°F17.9°C 90% 4.0 mph S6.4 kmh S 11.0 mph17.7 kmh 29.64 in1003.7 mb 0.00 in0.0 mm 0.00 in0.0 mm 0.00 in0.0 mm
06:22 AM 67.3°F19.6°C 64.3°F17.9°C 90% 5.0 mph S8.0 kmh S 11.0 mph17.7 kmh 29.64 in1003.7 mb 0.00 in0.0 mm 0.00 in0.0 mm 0.00 in0.0 mm
06:20 AM 67.3°F19.6°C 64.3°F17.9°C 90% 4.0 mph S6.4 kmh S 11.0 mph17.7 kmh 29.64 in1003.7 mb 0.00 in0.0 mm 0.00 in0.0 mm 0.00 in0.0 mm
06:18 AM 67.3°F19.6°C 64.3°F17.9°C 90% 4.0 mph S6.4 kmh S 11.0 mph17.7 kmh 29.64 in1003.7 mb 0.00 in0.0 mm 0.00 in0.0 mm 0.00 in0.0 mm
06:16 AM 67.3°F19.6°C 64.3°F17.9°C 90% 4.0 mph S6.4 kmh S 9.0 mph14.5 kmh 29.64 in1003.7 mb 0.00 in0.0 mm 0.00 in0.0 mm 0.00 in0.0 mm
06:14 AM 67.3°F19.6°C 64.3°F17.9°C 90% 4.0 mph S6.4 kmh S 9.0 mph14.5 kmh 29.64 in1003.7 mb 0.00 in0.0 mm 0.00 in0.0 mm 0.00 in0.0 mm
06:12 AM 67.3°F19.6°C 63.9°F17.7°C 89% 4.0 mph S6.4 kmh S 8.0 mph12.9 kmh 29.64 in1003.7 mb 0.00 in0.0 mm 0.00 in0.0 mm 0.00 in0.0 mm
06:10 AM 67.4°F19.7°C 64.0°F17.8°C 89% 5.0 mph S8.0 kmh S 8.0 mph12.9 kmh 29.64 in1003.7 mb 0.00 in0.0 mm 0.00 in0.0 mm 0.00 in0.0 mm
06:08 AM 67.4°F19.7°C 64.0°F17.8°C 89% 5.0 mph S8.0 kmh S 10.0 mph16.1 kmh 29.64 in1003.7 mb 0.00 in0.0 mm 0.00 in0.0 mm 0.00 in0.0 mm
06:06 AM 67.5°F19.7°C 64.1°F17.8°C 89% 5.0 mph S8.0 kmh S 11.0 mph17.7 kmh 29.64 in1003.7 mb 0.00 in0.0 mm 0.00 in0.0 mm 0.00 in0.0 mm
06:04 AM 67.5°F19.7°C 64.1°F17.8°C 89% 5.0 mph S8.0 kmh S 11.0 mph17.7 kmh 29.64 in1003.7 mb 0.00 in0.0 mm 0.00 in0.0 mm 0.00 in0.0 mm
06:02 AM 67.5°F19.7°C 64.1°F17.8°C 89% 5.0 mph SSE8.0 kmh SSE 11.0 mph17.7 kmh 29.64 in1003.7 mb 0.00 in0.0 mm 0.00 in0.0 mm 0.00 in0.0 mm
06:00 AM 67.6°F19.8°C 64.2°F17.9°C 89% 4.0 mph SSE6.4 kmh SSE 11.0 mph17.7 kmh 29.64 in1003.7 mb 0.00 in0.0 mm 0.00 in0.0 mm 0.00 in0.0 mm
05:58 AM 67.6°F19.8°C 64.2°F17.9°C 89% 4.0 mph S6.4 kmh S 11.0 mph17.7 kmh 29.64 in1003.7 mb 0.00 in0.0 mm 0.00 in0.0 mm 0.00 in0.0 mm
05:56 AM 67.6°F19.8°C 64.2°F17.9°C 89% 4.0 mph SSE6.4 kmh SSE 9.0 mph14.5 kmh 29.65 in1004.1 mb 0.00 in0.0 mm 0.00 in0.0 mm 0.00 in0.0 mm
05:54 AM 67.7°F19.8°C 64.0°F17.8°C 88% 4.0 mph SSE6.4 kmh SSE 10.0 mph16.1 kmh 29.64 in1003.7 mb 0.00 in0.0 mm 0.00 in0.0 mm 0.00 in0.0 mm
05:52 AM 67.7°F19.8°C 64.0°F17.8°C 88% 5.0 mph S8.0 kmh S 10.0 mph16.1 kmh 29.65 in1004.1 mb 0.00 in0.0 mm 0.00 in0.0 mm 0.00 in0.0 mm
05:50 AM 67.7°F19.8°C 64.0°F17.8°C 88% 5.0 mph S8.0 kmh S 10.0 mph16.1 kmh 29.64 in1003.7 mb 0.00 in0.0 mm 0.00 in0.0 mm 0.00 in0.0 mm
05:48 AM 67.8°F19.9°C 64.1°F17.8°C 88% 5.0 mph S8.0 kmh S 10.0 mph16.1 kmh 29.64 in1003.7 mb 0.00 in0.0 mm 0.00 in0.0 mm 0.00 in0.0 mm
05:46 AM 67.8°F19.9°C 64.1°F17.8°C 88% 5.0 mph S8.0 kmh S 10.0 mph16.1 kmh 29.64 in1003.7 mb 0.00 in0.0 mm 0.00 in0.0 mm 0.00 in0.0 mm
05:44 AM 67.8°F19.9°C 64.1°F17.8°C 88% 6.0 mph S9.7 kmh S 11.0 mph17.7 kmh 29.64 in1003.7 mb 0.00 in0.0 mm 0.00 in0.0 mm 0.00 in0.0 mm
05:42 AM 67.8°F19.9°C 64.1°F17.8°C 88% 6.0 mph S9.7 kmh S 14.0 mph22.5 kmh 29.64 in1003.7 mb 0.00 in0.0 mm 0.00 in0.0 mm 0.00 in0.0 mm
05:40 AM 67.8°F19.9°C 64.1°F17.8°C 88% 7.0 mph S11.3 kmh S 14.0 mph22.5 kmh 29.64 in1003.7 mb 0.00 in0.0 mm 0.00 in0.0 mm 0.00 in0.0 mm
05:38 AM 67.7°F19.8°C 64.0°F17.8°C 88% 7.0 mph SSE11.3 kmh SSE 14.0 mph22.5 kmh 29.64 in1003.7 mb 0.00 in0.0 mm 0.00 in0.0 mm 0.00 in0.0 mm
05:36 AM 67.7°F19.8°C 64.0°F17.8°C 88% 8.0 mph S12.9 kmh S 14.0 mph22.5 kmh 29.64 in1003.7 mb 0.00 in0.0 mm 0.00 in0.0 mm 0.00 in0.0 mm
05:34 AM 67.5°F19.7°C 63.8°F17.7°C 88% 7.0 mph S11.3 kmh S 16.0 mph25.7 kmh 29.65 in1004.1 mb 0.00 in0.0 mm 0.00 in0.0 mm 0.00 in0.0 mm
05:32 AM 67.4°F19.7°C 64.0°F17.8°C 89% 7.0 mph S11.3 kmh S 16.0 mph25.7 kmh 29.64 in1003.7 mb 0.00 in0.0 mm 0.00 in0.0 mm 0.00 in0.0 mm
05:30 AM 67.2°F19.6°C 63.8°F17.7°C 89% 6.0 mph S9.7 kmh S 16.0 mph25.7 kmh 29.64 in1003.7 mb 0.00 in0.0 mm 0.00 in0.0 mm 0.00 in0.0 mm
05:28 AM 67.1°F19.5°C 64.1°F17.8°C 90% 5.0 mph S8.0 kmh S 16.0 mph25.7 kmh 29.64 in1003.7 mb 0.00 in0.0 mm 0.00 in0.0 mm 0.00 in0.0 mm
05:26 AM 67.0°F19.4°C 64.3°F17.9°C 91% 4.0 mph S6.4 kmh S 16.0 mph25.7 kmh 29.64 in1003.7 mb 0.00 in0.0 mm 0.00 in0.0 mm 0.00 in0.0 mm
05:24 AM 66.9°F19.4°C 64.2°F17.9°C 91% 3.0 mph SSE4.8 kmh SSE 11.0 mph17.7 kmh 29.64 in1003.7 mb 0.00 in0.0 mm 0.00 in0.0 mm 0.00 in0.0 mm
05:22 AM 66.9°F19.4°C 64.2°F17.9°C 91% 2.0 mph SSE3.2 kmh SSE 10.0 mph16.1 kmh 29.64 in1003.7 mb 0.00 in0.0 mm 0.00 in0.0 mm 0.00 in0.0 mm
05:20 AM 66.8°F19.3°C 64.1°F17.8°C 91% 2.0 mph SE3.2 kmh SE 10.0 mph16.1 kmh 29.64 in1003.7 mb 0.00 in0.0 mm 0.00 in0.0 mm 0.00 in0.0 mm
05:18 AM 66.8°F19.3°C 64.1°F17.8°C 91% 2.0 mph SSE3.2 kmh SSE 6.0 mph9.7 kmh 29.64 in1003.7 mb 0.00 in0.0 mm 0.00 in0.0 mm 0.00 in0.0 mm
05:16 AM 66.8°F19.3°C 64.1°F17.8°C 91% 1.0 mph SSE1.6 kmh SSE 5.0 mph8.0 kmh 29.64 in1003.7 mb 0.00 in0.0 mm 0.00 in0.0 mm 0.00 in0.0 mm
05:14 AM 66.8°F19.3°C 64.1°F17.8°C 91% 1.0 mph SSE1.6 kmh SSE 4.0 mph6.4 kmh 29.64 in1003.7 mb 0.00 in0.0 mm 0.00 in0.0 mm 0.00 in0.0 mm
05:12 AM 66.8°F19.3°C 64.1°F17.8°C 91% 1.0 mph S1.6 kmh S 5.0 mph8.0 kmh 29.64 in1003.7 mb 0.00 in0.0 mm 0.00 in0.0 mm 0.00 in0.0 mm
05:10 AM 66.8°F19.3°C 64.1°F17.8°C 91% 1.0 mph S1.6 kmh S 6.0 mph9.7 kmh 29.64 in1003.7 mb 0.00 in0.0 mm 0.00 in0.0 mm 0.00 in0.0 mm
05:08 AM 66.9°F19.4°C 64.2°F17.9°C 91% 1.0 mph S1.6 kmh S 6.0 mph9.7 kmh 29.64 in1003.7 mb 0.00 in0.0 mm 0.00 in0.0 mm 0.00 in0.0 mm
05:06 AM 66.9°F19.4°C 64.2°F17.9°C 91% 1.0 mph S1.6 kmh S 6.0 mph9.7 kmh 29.64 in1003.7 mb 0.00 in0.0 mm 0.00 in0.0 mm 0.00 in0.0 mm
05:04 AM 67.0°F19.4°C 64.0°F17.8°C 90% 1.0 mph S1.6 kmh S 6.0 mph9.7 kmh 29.64 in1003.7 mb 0.00 in0.0 mm 0.00 in0.0 mm 0.00 in0.0 mm
05:02 AM 67.1°F19.5°C 64.1°F17.8°C 90% 1.0 mph SSE1.6 kmh SSE 6.0 mph9.7 kmh 29.64 in1003.7 mb 0.00 in0.0 mm 0.00 in0.0 mm 0.00 in0.0 mm
05:00 AM 67.2°F19.6°C 64.2°F17.9°C 90% 1.0 mph SSE1.6 kmh SSE 8.0 mph12.9 kmh 29.64 in1003.7 mb 0.00 in0.0 mm 0.00 in0.0 mm 0.00 in0.0 mm
04:58 AM 67.3°F19.6°C 64.3°F17.9°C 90% 2.0 mph S3.2 kmh S 9.0 mph14.5 kmh 29.64 in1003.7 mb 0.00 in0.0 mm 0.00 in0.0 mm 0.00 in0.0 mm
04:56 AM 67.5°F19.7°C 64.5°F18.1°C 90% 3.0 mph SSE4.8 kmh SSE 10.0 mph16.1 kmh 29.64 in1003.7 mb 0.00 in0.0 mm 0.00 in0.0 mm 0.00 in0.0 mm
04:54 AM 67.6°F19.8°C 64.2°F17.9°C 89% 5.0 mph SSE8.0 kmh SSE 11.0 mph17.7 kmh 29.64 in1003.7 mb 0.00 in0.0 mm 0.00 in0.0 mm 0.00 in0.0 mm
04:52 AM 67.6°F19.8°C 64.2°F17.9°C 89% 6.0 mph SSE9.7 kmh SSE 11.0 mph17.7 kmh 29.64 in1003.7 mb 0.00 in0.0 mm 0.00 in0.0 mm 0.00 in0.0 mm
04:50 AM 67.7°F19.8°C 64.3°F17.9°C 89% 7.0 mph S11.3 kmh S 12.0 mph19.3 kmh 29.65 in1004.1 mb 0.00 in0.0 mm 0.00 in0.0 mm 0.00 in0.0 mm
04:48 AM 67.7°F19.8°C 64.3°F17.9°C 89% 8.0 mph SSE12.9 kmh SSE 14.0 mph22.5 kmh 29.65 in1004.1 mb 0.00 in0.0 mm 0.00 in0.0 mm 0.00 in0.0 mm
04:46 AM 67.7°F19.8°C 64.3°F17.9°C 89% 7.0 mph S11.3 kmh S 14.0 mph22.5 kmh 29.65 in1004.1 mb 0.00 in0.0 mm 0.00 in0.0 mm 0.00 in0.0 mm
04:44 AM 67.7°F19.8°C 64.3°F17.9°C 89% 8.0 mph S12.9 kmh S 14.0 mph22.5 kmh 29.65 in1004.1 mb 0.00 in0.0 mm 0.00 in0.0 mm 0.00 in0.0 mm
04:42 AM 67.7°F19.8°C 64.3°F17.9°C 89% 7.0 mph S11.3 kmh S 14.0 mph22.5 kmh 29.65 in1004.1 mb 0.00 in0.0 mm 0.00 in0.0 mm 0.00 in0.0 mm
04:40 AM 67.7°F19.8°C 64.3°F17.9°C 89% 6.0 mph S9.7 kmh S 14.0 mph22.5 kmh 29.65 in1004.1 mb 0.00 in0.0 mm 0.00 in0.0 mm 0.00 in0.0 mm
04:38 AM 67.8°F19.9°C 64.4°F18.0°C 89% 6.0 mph S9.7 kmh S 11.0 mph17.7 kmh 29.65 in1004.1 mb 0.00 in0.0 mm 0.00 in0.0 mm 0.00 in0.0 mm
04:36 AM 67.9°F19.9°C 64.2°F17.9°C 88% 6.0 mph S9.7 kmh S 11.0 mph17.7 kmh 29.65 in1004.1 mb 0.00 in0.0 mm 0.00 in0.0 mm 0.00 in0.0 mm
04:34 AM 67.9°F19.9°C 64.2°F17.9°C 88% 6.0 mph S9.7 kmh S 12.0 mph19.3 kmh 29.65 in1004.1 mb 0.00 in0.0 mm 0.00 in0.0 mm 0.00 in0.0 mm
04:32 AM 68.0°F20.0°C 64.3°F17.9°C 88% 6.0 mph S9.7 kmh S 12.0 mph19.3 kmh 29.65 in1004.1 mb 0.00 in0.0 mm 0.00 in0.0 mm 0.00 in0.0 mm
04:30 AM 68.0°F20.0°C 64.3°F17.9°C 88% 7.0 mph S11.3 kmh S 12.0 mph19.3 kmh 29.65 in1004.1 mb 0.00 in0.0 mm 0.00 in0.0 mm 0.00 in0.0 mm
04:28 AM 68.1°F20.1°C 64.4°F18.0°C 88% 7.0 mph S11.3 kmh S 12.0 mph19.3 kmh 29.65 in1004.1 mb 0.00 in0.0 mm 0.00 in0.0 mm 0.00 in0.0 mm
04:26 AM 68.1°F20.1°C 64.4°F18.0°C 88% 7.0 mph S11.3 kmh S 12.0 mph19.3 kmh 29.65 in1004.1 mb 0.00 in0.0 mm 0.00 in0.0 mm 0.00 in0.0 mm
04:24 AM 68.2°F20.1°C 64.2°F17.9°C 87% 7.0 mph SSE11.3 kmh SSE 12.0 mph19.3 kmh 29.66 in1004.4 mb 0.00 in0.0 mm 0.00 in0.0 mm 0.00 in0.0 mm
04:22 AM 68.3°F20.2°C 64.3°F17.9°C 87% 7.0 mph SSE11.3 kmh SSE 13.0 mph20.9 kmh 29.66 in1004.4 mb 0.00 in0.0 mm 0.00 in0.0 mm 0.00 in0.0 mm
04:20 AM 68.5°F20.3°C 64.5°F18.1°C 87% 7.0 mph SSE11.3 kmh SSE 13.0 mph20.9 kmh 29.66 in1004.4 mb 0.00 in0.0 mm 0.00 in0.0 mm 0.00 in0.0 mm
04:18 AM 68.6°F20.3°C 64.2°F17.9°C 86% 8.0 mph SSE12.9 kmh SSE 15.0 mph24.1 kmh 29.65 in1004.1 mb 0.00 in0.0 mm 0.00 in0.0 mm 0.00 in0.0 mm
04:16 AM 68.7°F20.4°C 64.3°F17.9°C 86% 8.0 mph SSE12.9 kmh SSE 15.0 mph24.1 kmh 29.65 in1004.1 mb 0.00 in0.0 mm 0.00 in0.0 mm 0.00 in0.0 mm
04:14 AM 68.9°F20.5°C 64.2°F17.9°C 85% 9.0 mph S14.5 kmh S 15.0 mph24.1 kmh 29.65 in1004.1 mb 0.00 in0.0 mm 0.00 in0.0 mm 0.00 in0.0 mm
04:12 AM 69.0°F20.6°C 64.3°F17.9°C 85% 9.0 mph S14.5 kmh S 15.0 mph24.1 kmh 29.65 in1004.1 mb 0.00 in0.0 mm 0.00 in0.0 mm 0.00 in0.0 mm
04:10 AM 69.1°F20.6°C 64.4°F18.0°C 85% 10.0 mph S16.1 kmh S 16.0 mph25.7 kmh 29.65 in1004.1 mb 0.00 in0.0 mm 0.00 in0.0 mm 0.00 in0.0 mm
04:08 AM 69.2°F20.7°C 64.5°F18.1°C 85% 10.0 mph S16.1 kmh S 16.0 mph25.7 kmh 29.65 in1004.1 mb 0.00 in0.0 mm 0.00 in0.0 mm 0.00 in0.0 mm
04:06 AM 69.2°F20.7°C 64.2°F17.9°C 84% 11.0 mph S17.7 kmh S 17.0 mph27.4 kmh 29.65 in1004.1 mb 0.00 in0.0 mm 0.00 in0.0 mm 0.00 in0.0 mm
04:04 AM 69.2°F20.7°C 64.2°F17.9°C 84% 10.0 mph S16.1 kmh S 18.0 mph29.0 kmh 29.65 in1004.1 mb 0.00 in0.0 mm 0.00 in0.0 mm 0.00 in0.0 mm
04:02 AM 69.3°F20.7°C 64.3°F17.9°C 84% 10.0 mph S16.1 kmh S 18.0 mph29.0 kmh 29.65 in1004.1 mb 0.00 in0.0 mm 0.00 in0.0 mm 0.00 in0.0 mm
04:00 AM 69.4°F20.8°C 64.4°F18.0°C 84% 10.0 mph S16.1 kmh S 18.0 mph29.0 kmh 29.65 in1004.1 mb 0.00 in0.0 mm 0.00 in0.0 mm 0.00 in0.0 mm
03:58 AM 69.5°F20.8°C 64.1°F17.8°C 83% 10.0 mph S16.1 kmh S 18.0 mph29.0 kmh 29.64 in1003.7 mb 0.00 in0.0 mm 0.00 in0.0 mm 0.00 in0.0 mm
03:56 AM 69.6°F20.9°C 64.2°F17.9°C 83% 9.0 mph S14.5 kmh S 18.0 mph29.0 kmh 29.64 in1003.7 mb 0.00 in0.0 mm 0.00 in0.0 mm 0.00 in0.0 mm
03:54 AM 69.7°F20.9°C 64.3°F17.9°C 83% 8.0 mph S12.9 kmh S 15.0 mph24.1 kmh 29.64 in1003.7 mb 0.00 in0.0 mm 0.00 in0.0 mm 0.00 in0.0 mm
03:52 AM 69.8°F21.0°C 64.4°F18.0°C 83% 8.0 mph S12.9 kmh S 15.0 mph24.1 kmh 29.64 in1003.7 mb 0.00 in0.0 mm 0.00 in0.0 mm 0.00 in0.0 mm
03:50 AM 69.9°F21.1°C 64.2°F17.9°C 82% 8.0 mph S12.9 kmh S 16.0 mph25.7 kmh 29.64 in1003.7 mb 0.00 in0.0 mm 0.00 in0.0 mm 0.00 in0.0 mm
03:48 AM 70.0°F21.1°C 64.2°F17.9°C 82% 8.0 mph S12.9 kmh S 16.0 mph25.7 kmh 29.63 in1003.4 mb 0.00 in0.0 mm 0.00 in0.0 mm 0.00 in0.0 mm
03:46 AM 70.1°F21.2°C 64.3°F17.9°C 82% 9.0 mph S14.5 kmh S 16.0 mph25.7 kmh 29.63 in1003.4 mb 0.00 in0.0 mm 0.00 in0.0 mm 0.00 in0.0 mm
03:44 AM 70.2°F21.2°C 64.1°F17.8°C 81% 9.0 mph S14.5 kmh S 16.0 mph25.7 kmh 29.63 in1003.4 mb 0.00 in0.0 mm 0.00 in0.0 mm 0.00 in0.0 mm
03:42 AM 70.3°F21.3°C 64.2°F17.9°C 81% 9.0 mph S14.5 kmh S 16.0 mph25.7 kmh 29.63 in1003.4 mb 0.00 in0.0 mm 0.00 in0.0 mm 0.00 in0.0 mm
03:40 AM 70.4°F21.3°C 64.3°F17.9°C 81% 9.0 mph S14.5 kmh S 15.0 mph24.1 kmh 29.63 in1003.4 mb 0.00 in0.0 mm 0.00 in0.0 mm 0.00 in0.0 mm
03:38 AM 70.5°F21.4°C 64.0°F17.8°C 80% 9.0 mph S14.5 kmh S 17.0 mph27.4 kmh 29.63 in1003.4 mb 0.00 in0.0 mm 0.00 in0.0 mm 0.00 in0.0 mm
03:36 AM 70.5°F21.4°C 64.0°F17.8°C 80% 9.0 mph S14.5 kmh S 17.0 mph27.4 kmh 29.63 in1003.4 mb 0.00 in0.0 mm 0.00 in0.0 mm 0.00 in0.0 mm
03:34 AM 70.6°F21.4°C 64.1°F17.8°C 80% 8.0 mph SSE12.9 kmh SSE 17.0 mph27.4 kmh 29.63 in1003.4 mb 0.00 in0.0 mm 0.00 in0.0 mm 0.00 in0.0 mm
03:32 AM 70.6°F21.4°C 64.1°F17.8°C 80% 8.0 mph S12.9 kmh S 17.0 mph27.4 kmh 29.63 in1003.4 mb 0.00 in0.0 mm 0.00 in0.0 mm 0.00 in0.0 mm
03:30 AM 70.7°F21.5°C 64.2°F17.9°C 80% 8.0 mph S12.9 kmh S 17.0 mph27.4 kmh 29.63 in1003.4 mb 0.00 in0.0 mm 0.00 in0.0 mm 0.00 in0.0 mm
03:28 AM 70.8°F21.6°C 64.3°F17.9°C 80% 8.0 mph S12.9 kmh S 17.0 mph27.4 kmh 29.63 in1003.4 mb 0.00 in0.0 mm 0.00 in0.0 mm 0.00 in0.0 mm
03:26 AM 70.9°F21.6°C 64.1°F17.8°C 79% 9.0 mph S14.5 kmh S 19.0 mph30.6 kmh 29.63 in1003.4 mb 0.00 in0.0 mm 0.00 in0.0 mm 0.00 in0.0 mm
03:24 AM 71.0°F21.7°C 64.2°F17.9°C 79% 9.0 mph S14.5 kmh S 19.0 mph30.6 kmh 29.63 in1003.4 mb 0.00 in0.0 mm 0.00 in0.0 mm 0.00 in0.0 mm
03:22 AM 71.1°F21.7°C 64.3°F17.9°C 79% 10.0 mph S16.1 kmh S 19.0 mph30.6 kmh 29.63 in1003.4 mb 0.00 in0.0 mm 0.00 in0.0 mm 0.00 in0.0 mm
03:20 AM 71.2°F21.8°C 64.0°F17.8°C 78% 10.0 mph S16.1 kmh S 19.0 mph30.6 kmh 29.63 in1003.4 mb 0.00 in0.0 mm 0.00 in0.0 mm 0.00 in0.0 mm
03:18 AM 71.2°F21.8°C 64.0°F17.8°C 78% 9.0 mph S14.5 kmh S 19.0 mph30.6 kmh 29.63 in1003.4 mb 0.00 in0.0 mm 0.00 in0.0 mm 0.00 in0.0 mm
03:16 AM 71.2°F21.8°C 64.0°F17.8°C 78% 9.0 mph S14.5 kmh S 19.0 mph30.6 kmh 29.63 in1003.4 mb 0.00 in0.0 mm 0.00 in0.0 mm 0.00 in0.0 mm
03:14 AM 71.3°F21.8°C 64.1°F17.8°C 78% 9.0 mph S14.5 kmh S 19.0 mph30.6 kmh 29.63 in1003.4 mb 0.00 in0.0 mm 0.00 in0.0 mm 0.00 in0.0 mm
03:12 AM 71.2°F21.8°C 64.0°F17.8°C 78% 9.0 mph SSE14.5 kmh SSE 19.0 mph30.6 kmh 29.63 in1003.4 mb 0.00 in0.0 mm 0.00 in0.0 mm 0.00 in0.0 mm
03:10 AM 71.3°F21.8°C 64.1°F17.8°C 78% 9.0 mph SSE14.5 kmh SSE 17.0 mph27.4 kmh 29.63 in1003.4 mb 0.00 in0.0 mm 0.00 in0.0 mm 0.00 in0.0 mm
03:08 AM 71.3°F21.8°C 64.1°F17.8°C 78% 9.0 mph SSE14.5 kmh SSE 17.0 mph27.4 kmh 29.63 in1003.4 mb 0.00 in0.0 mm 0.00 in0.0 mm 0.00 in0.0 mm
03:06 AM 71.3°F21.8°C 64.1°F17.8°C 78% 8.0 mph SSE12.9 kmh SSE 17.0 mph27.4 kmh 29.63 in1003.4 mb 0.00 in0.0 mm 0.00 in0.0 mm 0.00 in0.0 mm
03:04 AM 71.3°F21.8°C 64.1°F17.8°C 78% 7.0 mph SSE11.3 kmh SSE 17.0 mph27.4 kmh 29.63 in1003.4 mb 0.00 in0.0 mm 0.00 in0.0 mm 0.00 in0.0 mm
03:02 AM 71.4°F21.9°C 63.8°F17.7°C 77% 6.0 mph SSE9.7 kmh SSE 17.0 mph27.4 kmh 29.63 in1003.4 mb 0.00 in0.0 mm 0.00 in0.0 mm 0.00 in0.0 mm
03:00 AM 71.4°F21.9°C 63.8°F17.7°C 77% 5.0 mph SSE8.0 kmh SSE 17.0 mph27.4 kmh 29.63 in1003.4 mb 0.00 in0.0 mm 0.00 in0.0 mm 0.00 in0.0 mm
02:58 AM 71.4°F21.9°C 63.8°F17.7°C 77% 6.0 mph SSE9.7 kmh SSE 18.0 mph29.0 kmh 29.63 in1003.4 mb 0.00 in0.0 mm 0.00 in0.0 mm 0.00 in0.0 mm
02:56 AM 71.5°F21.9°C 63.9°F17.7°C 77% 6.0 mph SSE9.7 kmh SSE 18.0 mph29.0 kmh 29.63 in1003.4 mb 0.00 in0.0 mm 0.00 in0.0 mm 0.00 in0.0 mm
02:54 AM 71.5°F21.9°C 63.9°F17.7°C 77% 6.0 mph SSE9.7 kmh SSE 18.0 mph29.0 kmh 29.63 in1003.4 mb 0.00 in0.0 mm 0.00 in0.0 mm 0.00 in0.0 mm
02:52 AM 71.5°F21.9°C 63.9°F17.7°C 77% 7.0 mph SSE11.3 kmh SSE 18.0 mph29.0 kmh 29.63 in1003.4 mb 0.00 in0.0 mm 0.00 in0.0 mm 0.00 in0.0 mm
02:50 AM 71.5°F21.9°C 63.9°F17.7°C 77% 7.0 mph SSE11.3 kmh SSE 18.0 mph29.0 kmh 29.63 in1003.4 mb 0.00 in0.0 mm 0.00 in0.0 mm 0.00 in0.0 mm
02:48 AM 71.6°F22.0°C 64.0°F17.8°C 77% 7.0 mph SSE11.3 kmh SSE 17.0 mph27.4 kmh 29.63 in1003.4 mb 0.00 in0.0 mm 0.00 in0.0 mm 0.00 in0.0 mm
02:46 AM 71.6°F22.0°C 64.0°F17.8°C 77% 8.0 mph S12.9 kmh S 20.0 mph32.2 kmh 29.64 in1003.7 mb 0.00 in0.0 mm 0.00 in0.0 mm 0.00 in0.0 mm
02:44 AM 71.7°F22.1°C 64.1°F17.8°C 77% 8.0 mph SSE12.9 kmh SSE 20.0 mph32.2 kmh 29.63 in1003.4 mb 0.00 in0.0 mm 0.00 in0.0 mm 0.00 in0.0 mm
02:42 AM 71.7°F22.1°C 64.1°F17.8°C 77% 7.0 mph SSE11.3 kmh SSE 20.0 mph32.2 kmh 29.64 in1003.7 mb 0.00 in0.0 mm 0.00 in0.0 mm 0.00 in0.0 mm
02:40 AM 71.8°F22.1°C 64.2°F17.9°C 77% 7.0 mph SSE11.3 kmh SSE 20.0 mph32.2 kmh 29.64 in1003.7 mb 0.00 in0.0 mm 0.00 in0.0 mm 0.00 in0.0 mm
02:38 AM 71.9°F22.2°C 63.9°F17.7°C 76% 7.0 mph SSE11.3 kmh SSE 20.0 mph32.2 kmh 29.64 in1003.7 mb 0.00 in0.0 mm 0.00 in0.0 mm 0.00 in0.0 mm
02:36 AM 72.0°F22.2°C 64.0°F17.8°C 76% 6.0 mph SSE9.7 kmh SSE 14.0 mph22.5 kmh 29.64 in1003.7 mb 0.00 in0.0 mm 0.00 in0.0 mm 0.00 in0.0 mm
02:34 AM 72.1°F22.3°C 63.7°F17.6°C 75% 7.0 mph SSE11.3 kmh SSE 14.0 mph22.5 kmh 29.64 in1003.7 mb 0.00 in0.0 mm 0.00 in0.0 mm 0.00 in0.0 mm
02:32 AM 72.2°F22.3°C 63.8°F17.7°C 75% 8.0 mph S12.9 kmh S 20.0 mph32.2 kmh 29.64 in1003.7 mb 0.00 in0.0 mm 0.00 in0.0 mm 0.00 in0.0 mm
02:30 AM 72.2°F22.3°C 63.8°F17.7°C 75% 7.0 mph S11.3 kmh S 20.0 mph32.2 kmh 29.64 in1003.7 mb 0.00 in0.0 mm 0.00 in0.0 mm 0.00 in0.0 mm
02:28 AM 72.3°F22.4°C 63.9°F17.7°C 75% 8.0 mph S12.9 kmh S 20.0 mph32.2 kmh 29.64 in1003.7 mb 0.00 in0.0 mm 0.00 in0.0 mm 0.00 in0.0 mm
02:26 AM 72.4°F22.4°C 64.0°F17.8°C 75% 8.0 mph S12.9 kmh S 20.0 mph32.2 kmh 29.64 in1003.7 mb 0.00 in0.0 mm 0.00 in0.0 mm 0.00 in0.0 mm
02:24 AM 72.4°F22.4°C 63.6°F17.6°C 74% 9.0 mph S14.5 kmh S 20.0 mph32.2 kmh 29.64 in1003.7 mb 0.00 in0.0 mm 0.00 in0.0 mm 0.00 in0.0 mm
02:22 AM 72.4°F22.4°C 63.6°F17.6°C 74% 9.0 mph S14.5 kmh S 20.0 mph32.2 kmh 29.65 in1004.1 mb 0.00 in0.0 mm 0.00 in0.0 mm 0.00 in0.0 mm
02:20 AM 72.5°F22.5°C 63.7°F17.6°C 74% 10.0 mph S16.1 kmh S 22.0 mph35.4 kmh 29.64 in1003.7 mb 0.00 in0.0 mm 0.00 in0.0 mm 0.00 in0.0 mm
02:18 AM 72.5°F22.5°C 63.7°F17.6°C 74% 10.0 mph S16.1 kmh S 22.0 mph35.4 kmh 29.65 in1004.1 mb 0.00 in0.0 mm 0.00 in0.0 mm 0.00 in0.0 mm
02:16 AM 72.4°F22.4°C 63.6°F17.6°C 74% 11.0 mph S17.7 kmh S 22.0 mph35.4 kmh 29.65 in1004.1 mb 0.00 in0.0 mm 0.00 in0.0 mm 0.00 in0.0 mm
02:14 AM 72.3°F22.4°C 63.5°F17.5°C 74% 10.0 mph S16.1 kmh S 22.0 mph35.4 kmh 29.65 in1004.1 mb 0.00 in0.0 mm 0.00 in0.0 mm 0.00 in0.0 mm
02:12 AM 72.2°F22.3°C 63.4°F17.4°C 74% 10.0 mph S16.1 kmh S 22.0 mph35.4 kmh 29.65 in1004.1 mb 0.00 in0.0 mm 0.00 in0.0 mm 0.00 in0.0 mm
02:10 AM 72.1°F22.3°C 63.7°F17.6°C 75% 10.0 mph SSE16.1 kmh SSE 19.0 mph30.6 kmh 29.65 in1004.1 mb 0.00 in0.0 mm 0.00 in0.0 mm 0.00 in0.0 mm
02:08 AM 72.1°F22.3°C 63.7°F17.6°C 75% 10.0 mph S16.1 kmh S 19.0 mph30.6 kmh 29.65 in1004.1 mb 0.00 in0.0 mm 0.00 in0.0 mm 0.00 in0.0 mm
02:06 AM 72.1°F22.3°C 63.7°F17.6°C 75% 9.0 mph S14.5 kmh S 19.0 mph30.6 kmh 29.65 in1004.1 mb 0.00 in0.0 mm 0.00 in0.0 mm 0.00 in0.0 mm
02:04 AM 72.0°F22.2°C 63.3°F17.4°C 74% 9.0 mph S14.5 kmh S 19.0 mph30.6 kmh 29.65 in1004.1 mb 0.00 in0.0 mm 0.00 in0.0 mm 0.00 in0.0 mm
02:02 AM 72.0°F22.2°C 63.6°F17.6°C 75% 9.0 mph S14.5 kmh S 19.0 mph30.6 kmh 29.65 in1004.1 mb 0.00 in0.0 mm 0.00 in0.0 mm 0.00 in0.0 mm
02:00 AM 71.9°F22.2°C 63.5°F17.5°C 75% 8.0 mph S12.9 kmh S 18.0 mph29.0 kmh 29.65 in1004.1 mb 0.00 in0.0 mm 0.00 in0.0 mm 0.00 in0.0 mm
01:58 AM 71.9°F22.2°C 63.5°F17.5°C 75% 8.0 mph S12.9 kmh S 18.0 mph29.0 kmh 29.65 in1004.1 mb 0.00 in0.0 mm 0.00 in0.0 mm 0.00 in0.0 mm
01:56 AM 71.9°F22.2°C 63.5°F17.5°C 75% 9.0 mph S14.5 kmh S 18.0 mph29.0 kmh 29.65 in1004.1 mb 0.00 in0.0 mm 0.00 in0.0 mm 0.00 in0.0 mm
01:54 AM 71.8°F22.1°C 63.4°F17.4°C 75% 9.0 mph S14.5 kmh S 18.0 mph29.0 kmh 29.65 in1004.1 mb 0.00 in0.0 mm 0.00 in0.0 mm 0.00 in0.0 mm
01:52 AM 71.7°F22.1°C 63.4°F17.4°C 75% 8.0 mph S12.9 kmh S 15.0 mph24.1 kmh 29.65 in1004.1 mb 0.00 in0.0 mm 0.00 in0.0 mm 0.00 in0.0 mm
01:50 AM 71.6°F22.0°C 63.3°F17.4°C 75% 8.0 mph S12.9 kmh S 15.0 mph24.1 kmh 29.65 in1004.1 mb 0.00 in0.0 mm 0.00 in0.0 mm 0.00 in0.0 mm
01:48 AM 71.5°F21.9°C 63.2°F17.3°C 75% 8.0 mph S12.9 kmh S 16.0 mph25.7 kmh 29.65 in1004.1 mb 0.00 in0.0 mm 0.00 in0.0 mm 0.00 in0.0 mm
01:46 AM 71.5°F21.9°C 63.2°F17.3°C 75% 7.0 mph S11.3 kmh S 16.0 mph25.7 kmh 29.65 in1004.1 mb 0.00 in0.0 mm 0.00 in0.0 mm 0.00 in0.0 mm
01:44 AM 71.4°F21.9°C 63.4°F17.4°C 76% 6.0 mph S9.7 kmh S 16.0 mph25.7 kmh 29.66 in1004.4 mb 0.00 in0.0 mm 0.00 in0.0 mm 0.00 in0.0 mm
01:42 AM 71.3°F21.8°C 63.3°F17.4°C 76% 7.0 mph S11.3 kmh S 16.0 mph25.7 kmh 29.65 in1004.1 mb 0.00 in0.0 mm 0.00 in0.0 mm 0.00 in0.0 mm
01:40 AM 71.2°F21.8°C 63.2°F17.3°C 76% 7.0 mph S11.3 kmh S 16.0 mph25.7 kmh 29.65 in1004.1 mb 0.00 in0.0 mm 0.00 in0.0 mm 0.00 in0.0 mm
01:38 AM 71.1°F21.7°C 63.5°F17.5°C 77% 6.0 mph S9.7 kmh S 14.0 mph22.5 kmh 29.66 in1004.4 mb 0.00 in0.0 mm 0.00 in0.0 mm 0.00 in0.0 mm
01:36 AM 71.0°F21.7°C 63.4°F17.4°C 77% 6.0 mph S9.7 kmh S 14.0 mph22.5 kmh 29.66 in1004.4 mb 0.00 in0.0 mm 0.00 in0.0 mm 0.00 in0.0 mm
01:34 AM 70.9°F21.6°C 63.3°F17.4°C 77% 6.0 mph S9.7 kmh S 14.0 mph22.5 kmh 29.66 in1004.4 mb 0.00 in0.0 mm 0.00 in0.0 mm 0.00 in0.0 mm
01:32 AM 70.8°F21.6°C 63.2°F17.3°C 77% 5.0 mph SSE8.0 kmh SSE 14.0 mph22.5 kmh 29.66 in1004.4 mb 0.00 in0.0 mm 0.00 in0.0 mm 0.00 in0.0 mm
01:30 AM 70.8°F21.6°C 63.2°F17.3°C 77% 5.0 mph SSE8.0 kmh SSE 13.0 mph20.9 kmh 29.66 in1004.4 mb 0.00 in0.0 mm 0.00 in0.0 mm 0.00 in0.0 mm
01:28 AM 70.7°F21.5°C 63.1°F17.3°C 77% 4.0 mph SSE6.4 kmh SSE 13.0 mph20.9 kmh 29.66 in1004.4 mb 0.00 in0.0 mm 0.00 in0.0 mm 0.00 in0.0 mm
01:26 AM 70.7°F21.5°C 63.1°F17.3°C 77% 5.0 mph SSE8.0 kmh SSE 12.0 mph19.3 kmh 29.66 in1004.4 mb 0.00 in0.0 mm 0.00 in0.0 mm 0.00 in0.0 mm
01:24 AM 70.7°F21.5°C 63.1°F17.3°C 77% 5.0 mph SSE8.0 kmh SSE 13.0 mph20.9 kmh 29.66 in1004.4 mb 0.00 in0.0 mm 0.00 in0.0 mm 0.00 in0.0 mm
01:22 AM 70.7°F21.5°C 63.1°F17.3°C 77% 6.0 mph SSE9.7 kmh SSE 14.0 mph22.5 kmh 29.66 in1004.4 mb 0.00 in0.0 mm 0.00 in0.0 mm 0.00 in0.0 mm
01:20 AM 70.7°F21.5°C 63.1°F17.3°C 77% 6.0 mph SSE9.7 kmh SSE 14.0 mph22.5 kmh 29.66 in1004.4 mb 0.00 in0.0 mm 0.00 in0.0 mm 0.00 in0.0 mm
01:18 AM 70.7°F21.5°C 63.1°F17.3°C 77% 7.0 mph S11.3 kmh S 14.0 mph22.5 kmh 29.66 in1004.4 mb 0.00 in0.0 mm 0.00 in0.0 mm 0.00 in0.0 mm
01:16 AM 70.7°F21.5°C 63.1°F17.3°C 77% 6.0 mph S9.7 kmh S 14.0 mph22.5 kmh 29.66 in1004.4 mb 0.00 in0.0 mm 0.00 in0.0 mm 0.00 in0.0 mm
01:14 AM 70.7°F21.5°C 63.1°F17.3°C 77% 6.0 mph S9.7 kmh S 14.0 mph22.5 kmh 29.66 in1004.4 mb 0.00 in0.0 mm 0.00 in0.0 mm 0.00 in0.0 mm
01:12 AM 70.6°F21.4°C 63.4°F17.4°C 78% 6.0 mph S9.7 kmh S 12.0 mph19.3 kmh 29.66 in1004.4 mb 0.00 in0.0 mm 0.00 in0.0 mm 0.00 in0.0 mm
01:10 AM 70.5°F21.4°C 63.3°F17.4°C 78% 5.0 mph S8.0 kmh S 14.0 mph22.5 kmh 29.66 in1004.4 mb 0.00 in0.0 mm 0.00 in0.0 mm 0.00 in0.0 mm
01:08 AM 70.4°F21.3°C 63.2°F17.3°C 78% 5.0 mph S8.0 kmh S 14.0 mph22.5 kmh 29.66 in1004.4 mb 0.00 in0.0 mm 0.00 in0.0 mm 0.00 in0.0 mm
01:06 AM 70.4°F21.3°C 63.2°F17.3°C 78% 5.0 mph S8.0 kmh S 14.0 mph22.5 kmh 29.66 in1004.4 mb 0.00 in0.0 mm 0.00 in0.0 mm 0.00 in0.0 mm
01:04 AM 70.3°F21.3°C 63.1°F17.3°C 78% 5.0 mph SSE8.0 kmh SSE 14.0 mph22.5 kmh 29.66 in1004.4 mb 0.00 in0.0 mm 0.00 in0.0 mm 0.00 in0.0 mm
01:02 AM 70.2°F21.2°C 63.4°F17.4°C 79% 5.0 mph SSE8.0 kmh SSE 14.0 mph22.5 kmh 29.66 in1004.4 mb 0.00 in0.0 mm 0.00 in0.0 mm 0.00 in0.0 mm
01:00 AM 70.1°F21.2°C 63.3°F17.4°C 79% 4.0 mph SSE6.4 kmh SSE 13.0 mph20.9 kmh 29.66 in1004.4 mb 0.00 in0.0 mm 0.00 in0.0 mm 0.00 in0.0 mm
12:58 AM 69.9°F21.1°C 63.1°F17.3°C 79% 4.0 mph S6.4 kmh S 13.0 mph20.9 kmh 29.66 in1004.4 mb 0.00 in0.0 mm 0.00 in0.0 mm 0.00 in0.0 mm
12:56 AM 69.8°F21.0°C 63.0°F17.2°C 79% 4.0 mph SSE6.4 kmh SSE 13.0 mph20.9 kmh 29.66 in1004.4 mb 0.00 in0.0 mm 0.00 in0.0 mm 0.00 in0.0 mm
12:54 AM 69.6°F20.9°C 63.2°F17.3°C 80% 4.0 mph SSE6.4 kmh SSE 10.0 mph16.1 kmh 29.67 in1004.7 mb 0.00 in0.0 mm 0.00 in0.0 mm 0.00 in0.0 mm
12:52 AM 69.6°F20.9°C 63.2°F17.3°C 80% 4.0 mph SSE6.4 kmh SSE 12.0 mph19.3 kmh 29.67 in1004.7 mb 0.00 in0.0 mm 0.00 in0.0 mm 0.00 in0.0 mm
12:50 AM 69.5°F20.8°C 63.1°F17.3°C 80% 4.0 mph SSE6.4 kmh SSE 12.0 mph19.3 kmh 29.67 in1004.7 mb 0.00 in0.0 mm 0.00 in0.0 mm 0.00 in0.0 mm
12:48 AM 69.3°F20.7°C 62.9°F17.2°C 80% 4.0 mph SSE6.4 kmh SSE 12.0 mph19.3 kmh 29.67 in1004.7 mb 0.00 in0.0 mm 0.00 in0.0 mm 0.00 in0.0 mm
12:46 AM 69.3°F20.7°C 62.9°F17.2°C 80% 4.0 mph SSE6.4 kmh SSE 12.0 mph19.3 kmh 29.67 in1004.7 mb 0.00 in0.0 mm 0.00 in0.0 mm 0.00 in0.0 mm
12:44 AM 69.1°F20.6°C 63.0°F17.2°C 81% 3.0 mph SSE4.8 kmh SSE 12.0 mph19.3 kmh 29.67 in1004.7 mb 0.00 in0.0 mm 0.00 in0.0 mm 0.00 in0.0 mm
12:42 AM 68.9°F20.5°C 62.8°F17.1°C 81% 2.0 mph SSE3.2 kmh SSE 9.0 mph14.5 kmh 29.67 in1004.7 mb 0.00 in0.0 mm 0.00 in0.0 mm 0.00 in0.0 mm
12:40 AM 68.7°F20.4°C 62.6°F17.0°C 81% 2.0 mph SSE3.2 kmh SSE 6.0 mph9.7 kmh 29.67 in1004.7 mb 0.00 in0.0 mm 0.00 in0.0 mm 0.00 in0.0 mm
12:38 AM 68.6°F20.3°C 62.5°F16.9°C 81% 2.0 mph SSE3.2 kmh SSE 6.0 mph9.7 kmh 29.68 in1005.1 mb 0.00 in0.0 mm 0.00 in0.0 mm 0.00 in0.0 mm
12:36 AM 68.5°F20.3°C 62.4°F16.9°C 81% 2.0 mph SSE3.2 kmh SSE 6.0 mph9.7 kmh 29.68 in1005.1 mb 0.00 in0.0 mm 0.00 in0.0 mm 0.00 in0.0 mm
12:34 AM 68.4°F20.2°C 62.7°F17.1°C 82% 2.0 mph S3.2 kmh S 6.0 mph9.7 kmh 29.68 in1005.1 mb 0.00 in0.0 mm 0.00 in0.0 mm 0.00 in0.0 mm
12:32 AM 68.3°F20.2°C 62.6°F17.0°C 82% 2.0 mph S3.2 kmh S 6.0 mph9.7 kmh 29.68 in1005.1 mb 0.00 in0.0 mm 0.00 in0.0 mm 0.00 in0.0 mm
12:30 AM 68.2°F20.1°C 62.5°F16.9°C 82% 1.0 mph S1.6 kmh S 5.0 mph8.0 kmh 29.68 in1005.1 mb 0.00 in0.0 mm 0.00 in0.0 mm 0.00 in0.0 mm
12:28 AM 68.1°F20.1°C 62.4°F16.9°C 82% 1.0 mph SSW1.6 kmh SSW 5.0 mph8.0 kmh 29.68 in1005.1 mb 0.00 in0.0 mm 0.00 in0.0 mm 0.00 in0.0 mm
12:26 AM 68.0°F20.0°C 62.6°F17.0°C 83% 1.0 mph SSW1.6 kmh SSW 9.0 mph14.5 kmh 29.68 in1005.1 mb 0.00 in0.0 mm 0.00 in0.0 mm 0.00 in0.0 mm
12:24 AM 67.9°F19.9°C 62.5°F16.9°C 83% 1.0 mph S1.6 kmh S 9.0 mph14.5 kmh 29.68 in1005.1 mb 0.00 in0.0 mm 0.00 in0.0 mm 0.00 in0.0 mm
12:22 AM 67.8°F19.9°C 62.4°F16.9°C 83% 1.0 mph SSE1.6 kmh SSE 9.0 mph14.5 kmh 29.69 in1005.4 mb 0.00 in0.0 mm 0.00 in0.0 mm 0.00 in0.0 mm
12:20 AM 67.7°F19.8°C 62.7°F17.1°C 84% 1.0 mph SE1.6 kmh SE 9.0 mph14.5 kmh 29.69 in1005.4 mb 0.00 in0.0 mm 0.00 in0.0 mm 0.00 in0.0 mm
12:18 AM 67.5°F19.7°C 62.5°F16.9°C 84% 1.0 mph SE1.6 kmh SE 9.0 mph14.5 kmh 29.69 in1005.4 mb 0.00 in0.0 mm 0.00 in0.0 mm 0.00 in0.0 mm
12:16 AM 67.3°F19.6°C 62.3°F16.8°C 84% 1.0 mph SE1.6 kmh SE 5.0 mph8.0 kmh 29.69 in1005.4 mb 0.00 in0.0 mm 0.00 in0.0 mm 0.00 in0.0 mm
12:14 AM 67.2°F19.6°C 62.5°F16.9°C 85% 1.0 mph SE1.6 kmh SE 4.0 mph6.4 kmh 29.69 in1005.4 mb 0.00 in0.0 mm 0.00 in0.0 mm 0.00 in0.0 mm
12:12 AM 67.1°F19.5°C 62.4°F16.9°C 85% 1.0 mph SE1.6 kmh SE 4.0 mph6.4 kmh 29.69 in1005.4 mb 0.00 in0.0 mm 0.00 in0.0 mm 0.00 in0.0 mm
12:10 AM 67.0°F19.4°C 62.7°F17.1°C 86% 1.0 mph SE1.6 kmh SE 9.0 mph14.5 kmh 29.69 in1005.4 mb 0.00 in0.0 mm 0.00 in0.0 mm 0.00 in0.0 mm
12:08 AM 66.8°F19.3°C 62.5°F16.9°C 86% 1.0 mph SE1.6 kmh SE 9.0 mph14.5 kmh 29.69 in1005.4 mb 0.00 in0.0 mm 0.00 in0.0 mm 0.00 in0.0 mm
12:06 AM 66.7°F19.3°C 62.4°F16.9°C 86% 1.0 mph S1.6 kmh S 9.0 mph14.5 kmh 29.69 in1005.4 mb 0.00 in0.0 mm 0.00 in0.0 mm 0.00 in0.0 mm
12:04 AM 66.4°F19.1°C 62.4°F16.9°C 87% 1.0 mph S1.6 kmh S 9.0 mph14.5 kmh 29.69 in1005.4 mb 0.00 in0.0 mm 0.00 in0.0 mm 0.00 in0.0 mm
12:02 AM 66.2°F19.0°C 62.2°F16.8°C 87% 1.0 mph SSW1.6 kmh SSW 9.0 mph14.5 kmh 29.69 in1005.4 mb 0.00 in0.0 mm 0.00 in0.0 mm 0.00 in0.0 mm
12:00 AM 65.9°F18.8°C 62.2°F16.8°C 88% Calm Calm 3.0 mph4.8 kmh 29.69 in1005.4 mb 0.00 in0.0 mm 0.00 in0.0 mm 0.00 in0.0 mm